Observation data for Hobbs on 07/21/2019      Previous  Date  Next       Current Mesonet Observations  Soil Data  Daily Summary Page  Observations in Plain Language
KHO1 210500Z 18013KT 30/10 A2998 RMK A01 T02990103  RH  030%=      5-min Rain = 0
KHO1 210501Z 18014KT 30/10 A2998 RMK A01 T02980103  RH  030%=      5-min Rain = 0
KHO1 210502Z 18015KT 30/10 A2998 RMK A01 T02980103  RH  030%=      5-min Rain = 0
KHO1 210503Z 18016KT 30/10 A2998 RMK A01 T02980104  RH  030%=      5-min Rain = 0
KHO1 210504Z 17014KT 30/10 A2998 RMK A01 T02980104  RH  030%=      5-min Rain = 0
KHO1 210505Z 18018KT 30/10 A2998 RMK A01 T02980104  RH  030%=      5-min Rain = 0
KHO1 210506Z 18014KT 30/10 A2998 RMK A01 T02980104  RH  030%=      5-min Rain = 0
KHO1 210507Z 17014KT 30/10 A2998 RMK A01 T02970104  RH  030%=      5-min Rain = 0
KHO1 210508Z 17012KT 30/11 A2998 RMK A01 T02970105  RH  030%=      5-min Rain = 0
KHO1 210509Z 18015KT 30/11 A2998 RMK A01 T02970105  RH  030%=      5-min Rain = 0
KHO1 210510Z 18016KT 30/11 A2998 RMK A01 T02970105  RH  031%=      5-min Rain = 0
KHO1 210511Z 17014KT 30/11 A2998 RMK A01 T02970105  RH  031%=      5-min Rain = 0
KHO1 210512Z 18015KT 30/11 A2998 RMK A01 T02960105  RH  031%=      5-min Rain = 0
KHO1 210513Z 18016KT 30/11 A2998 RMK A01 T02960106  RH  031%=      5-min Rain = 0
KHO1 210514Z 18013KT 30/11 A2999 RMK A01 T02960106  RH  031%=      5-min Rain = 0
KHO1 210515Z 18011G16KT 30/11 A2999 RMK A01 T02950106  RH  031%=      5-min Rain = 0
KHO1 210516Z 18013KT 30/11 A2999 RMK A01 T02950106  RH  031%=      5-min Rain = 0
KHO1 210517Z 18012G17KT 30/11 A2999 RMK A01 T02950106  RH  031%=      5-min Rain = 0
KHO1 210518Z 18015KT 30/11 A2999 RMK A01 T02950106  RH  031%=      5-min Rain = 0
KHO1 210519Z 18015KT 30/11 A2999 RMK A01 T02950106  RH  031%=      5-min Rain = 0
KHO1 210520Z 18013KT 30/11 A2999 RMK A01 T02950106  RH  031%=      5-min Rain = 0
KHO1 210521Z 18013KT 29/11 A2999 RMK A01 T02940106  RH  031%=      5-min Rain = 0
KHO1 210522Z 18012KT 29/11 A2999 RMK A01 T02940106  RH  031%=      5-min Rain = 0
KHO1 210523Z 17014KT 29/11 A2999 RMK A01 T02940106  RH  031%=      5-min Rain = 0
KHO1 210524Z 18012KT 29/11 A2999 RMK A01 T02930107  RH  031%=      5-min Rain = 0
KHO1 210525Z 18012KT 29/11 A2999 RMK A01 T02930106  RH  031%=      5-min Rain = 0
KHO1 210526Z 17013KT 29/11 A2999 RMK A01 T02920107  RH  032%=      5-min Rain = 0
KHO1 210527Z 18012KT 29/11 A2999 RMK A01 T02920107  RH  032%=      5-min Rain = 0
KHO1 210528Z 18013KT 29/11 A2999 RMK A01 T02920107  RH  032%=      5-min Rain = 0
KHO1 210529Z 18013KT 29/11 A30 RMK A01 T02920107  RH  032%=      5-min Rain = 0
KHO1 210530Z 17013KT 29/11 A30 RMK A01 T02920107  RH  032%=      5-min Rain = 0
KHO1 210531Z 17013KT 29/11 A30 RMK A01 T02920107  RH  032%=      5-min Rain = 0
KHO1 210532Z 18014KT 29/11 A30 RMK A01 T02920107  RH  032%=      5-min Rain = 0
KHO1 210533Z 17013KT 29/11 A30 RMK A01 T02920107  RH  032%=      5-min Rain = 0
KHO1 210534Z 17012KT 29/11 A30 RMK A01 T02910107  RH  032%=      5-min Rain = 0
KHO1 210535Z 17012KT 29/11 A30 RMK A01 T02910107  RH  032%=      5-min Rain = 0
KHO1 210536Z 18014KT 29/11 A30 RMK A01 T02910107  RH  032%=      5-min Rain = 0
KHO1 210537Z 17013KT 29/11 A30 RMK A01 T02900107  RH  032%=      5-min Rain = 0
KHO1 210538Z 17013KT 29/11 A30 RMK A01 T02900107  RH  032%=      5-min Rain = 0
KHO1 210539Z 17011KT 29/11 A2999 RMK A01 T02900107  RH  032%=      5-min Rain = 0
KHO1 210540Z 17012KT 29/11 A30 RMK A01 T02890107  RH  032%=      5-min Rain = 0
KHO1 210541Z 17012KT 29/11 A2999 RMK A01 T02890107  RH  032%=      5-min Rain = 0
KHO1 210542Z 17015KT 29/11 A2999 RMK A01 T02890107  RH  032%=      5-min Rain = 0
KHO1 210543Z 17012KT 29/11 A2999 RMK A01 T02890107  RH  032%=      5-min Rain = 0
KHO1 210544Z 17012KT 29/11 A2999 RMK A01 T02890107  RH  032%=      5-min Rain = 0
KHO1 210545Z 17013KT 29/11 A2999 RMK A01 T02890107  RH  032%=      5-min Rain = 0
KHO1 210546Z 17015KT 29/11 A2999 RMK A01 T02880107  RH  032%=      5-min Rain = 0
KHO1 210547Z 17013KT 29/11 A30 RMK A01 T02880107  RH  032%=      5-min Rain = 0
KHO1 210548Z 17013KT 29/11 A30 RMK A01 T02880107  RH  032%=      5-min Rain = 0
KHO1 210549Z 18012KT 29/11 A30 RMK A01 T02880107  RH  032%=      5-min Rain = 0
KHO1 210550Z 17013KT 29/11 A30 RMK A01 T02880107  RH  033%=      5-min Rain = 0
KHO1 210551Z 18013KT 29/11 A30 RMK A01 T02880107  RH  032%=      5-min Rain = 0
KHO1 210552Z 18011KT 29/11 A30 RMK A01 T02880107  RH  033%=      5-min Rain = 0
KHO1 210553Z 17011KT 29/11 A30 RMK A01 T02870107  RH  033%=      5-min Rain = 0
KHO1 210554Z 17012KT 29/11 A30 RMK A01 T02870107  RH  033%=      5-min Rain = 0
KHO1 210555Z 17010KT 29/11 A30 RMK A01 T02860107  RH  033%=      5-min Rain = 0
KHO1 210556Z 17013KT 29/11 A30 RMK A01 T02860107  RH  033%=      5-min Rain = 0
KHO1 210557Z 17013KT 29/11 A30 RMK A01 T02860107  RH  033%=      5-min Rain = 0
KHO1 210558Z 17010KT 29/11 A30 RMK A01 T02860107  RH  033%=      5-min Rain = 0
KHO1 210559Z 18010KT 29/11 A30 RMK A01 T02850107  RH  033%=      5-min Rain = 0
KHO1 210600Z 17011KT 28/11 A30 RMK A01 T02840107  RH  033%=      5-min Rain = 0
KHO1 210601Z 17012KT 29/11 A30 RMK A01 T02850107  RH  033%=      5-min Rain = 0
KHO1 210602Z 17011KT 29/11 A30 RMK A01 T02850107  RH  033%=      5-min Rain = 0
KHO1 210603Z 17011KT 29/11 A30 RMK A01 T02850107  RH  033%=      5-min Rain = 0
KHO1 210604Z 17012KT 28/11 A30 RMK A01 T02840107  RH  033%=      5-min Rain = 0
KHO1 210605Z 18009KT 28/11 A30 RMK A01 T02840107  RH  033%=      5-min Rain = 0
KHO1 210606Z 17011KT 28/11 A30 RMK A01 T02830107  RH  033%=      5-min Rain = 0
KHO1 210607Z 17010G16KT 28/11 A30 RMK A01 T02830107  RH  033%=      5-min Rain = 0
KHO1 210608Z 17013KT 28/11 A30 RMK A01 T02830107  RH  033%=      5-min Rain = 0
KHO1 210609Z 18015KT 28/11 A30 RMK A01 T02840107  RH  033%=      5-min Rain = 0
KHO1 210610Z 18012KT 28/11 A30 RMK A01 T02840107  RH  033%=      5-min Rain = 0
KHO1 210611Z 17012KT 28/11 A30 RMK A01 T02840107  RH  033%=      5-min Rain = 0
KHO1 210612Z 17015KT 28/11 A30 RMK A01 T02840107  RH  033%=      5-min Rain = 0
KHO1 210613Z 17014KT 28/11 A30 RMK A01 T02840107  RH  033%=      5-min Rain = 0
KHO1 210614Z 17013KT 28/11 A30 RMK A01 T02840106  RH  033%=      5-min Rain = 0
KHO1 210615Z 18012KT 28/11 A30 RMK A01 T02840106  RH  033%=      5-min Rain = 0
KHO1 210616Z 17010KT 28/11 A30 RMK A01 T02830106  RH  033%=      5-min Rain = 0
KHO1 210617Z 17012KT 28/11 A30 RMK A01 T02820106  RH  033%=      5-min Rain = 0
KHO1 210618Z 17014KT 28/11 A30 RMK A01 T02820106  RH  033%=      5-min Rain = 0
KHO1 210619Z 18013KT 28/11 A30 RMK A01 T02820106  RH  033%=      5-min Rain = 0
KHO1 210620Z 17015KT 28/11 A2999 RMK A01 T02820106  RH  033%=      5-min Rain = 0
KHO1 210621Z 17014KT 28/11 A2999 RMK A01 T02830106  RH  033%=      5-min Rain = 0
KHO1 210622Z 17012KT 28/11 A2999 RMK A01 T02820106  RH  033%=      5-min Rain = 0
KHO1 210623Z 18013KT 28/11 A30 RMK A01 T02820106  RH  033%=      5-min Rain = 0
KHO1 210624Z 17013KT 28/11 A2999 RMK A01 T02810106  RH  034%=      5-min Rain = 0
KHO1 210625Z 17012KT 28/11 A2999 RMK A01 T02810106  RH  034%=      5-min Rain = 0
KHO1 210626Z 17015KT 28/11 A2999 RMK A01 T02810106  RH  034%=      5-min Rain = 0
KHO1 210627Z 18014KT 28/11 A2999 RMK A01 T02810106  RH  033%=      5-min Rain = 0
KHO1 210628Z 17016KT 28/11 A2999 RMK A01 T02810106  RH  033%=      5-min Rain = 0
KHO1 210629Z 17011KT 28/11 A30 RMK A01 T02810106  RH  033%=      5-min Rain = 0
KHO1 210630Z 18013KT 28/11 A30 RMK A01 T02800105  RH  034%=      5-min Rain = 0
KHO1 210631Z 17012KT 28/11 A30 RMK A01 T02800105  RH  034%=      5-min Rain = 0
KHO1 210632Z 17012KT 28/11 A30 RMK A01 T02800105  RH  034%=      5-min Rain = 0
KHO1 210633Z 18012KT 28/11 A30 RMK A01 T02800105  RH  034%=      5-min Rain = 0
KHO1 210634Z 17011KT 28/11 A30 RMK A01 T02790105  RH  034%=      5-min Rain = 0
KHO1 210635Z 17011KT 28/11 A2999 RMK A01 T02790105  RH  034%=      5-min Rain = 0
KHO1 210636Z 17013KT 28/11 A30 RMK A01 T02790105  RH  034%=      5-min Rain = 0
KHO1 210637Z 17014KT 28/11 A2999 RMK A01 T02790105  RH  034%=      5-min Rain = 0
KHO1 210638Z 18012KT 28/11 A2999 RMK A01 T02790105  RH  034%=      5-min Rain = 0
KHO1 210639Z 18013KT 28/10 A2999 RMK A01 T02790104  RH  034%=      5-min Rain = 0
KHO1 210640Z 17013KT 28/10 A2999 RMK A01 T02780104  RH  034%=      5-min Rain = 0
KHO1 210641Z 18014KT 28/10 A2999 RMK A01 T02780104  RH  034%=      5-min Rain = 0
KHO1 210642Z 18014KT 28/10 A2999 RMK A01 T02780104  RH  034%=      5-min Rain = 0
KHO1 210643Z 17011KT 28/10 A2999 RMK A01 T02780104  RH  034%=      5-min Rain = 0
KHO1 210644Z 17010KT 28/10 A2999 RMK A01 T02770104  RH  034%=      5-min Rain = 0
KHO1 210645Z 17013KT 28/10 A2999 RMK A01 T02770104  RH  034%=      5-min Rain = 0
KHO1 210646Z 17013KT 28/10 A2999 RMK A01 T02770104  RH  034%=      5-min Rain = 0
KHO1 210647Z 17014KT 28/10 A2999 RMK A01 T02770103  RH  034%=      5-min Rain = 0
KHO1 210648Z 17012KT 28/10 A2999 RMK A01 T02770103  RH  034%=      5-min Rain = 0
KHO1 210649Z 17013KT 28/10 A2999 RMK A01 T02770103  RH  034%=      5-min Rain = 0
KHO1 210650Z 18013KT 28/10 A2999 RMK A01 T02760103  RH  034%=      5-min Rain = 0
KHO1 210651Z 17013KT 28/10 A2999 RMK A01 T02770103  RH  034%=      5-min Rain = 0
KHO1 210652Z 17014G19KT 28/10 A2999 RMK A01 T02770103  RH  034%=      5-min Rain = 0
KHO1 210653Z 17015KT 28/10 A2999 RMK A01 T02770102  RH  034%=      5-min Rain = 0
KHO1 210654Z 17015KT 28/10 A2999 RMK A01 T02770102  RH  034%=      5-min Rain = 0
KHO1 210655Z 17012KT 28/10 A2999 RMK A01 T02760102  RH  034%=      5-min Rain = 0
KHO1 210656Z 18012KT 28/10 A2999 RMK A01 T02760102  RH  034%=      5-min Rain = 0
KHO1 210657Z 18013KT 28/10 A2999 RMK A01 T02760102  RH  034%=      5-min Rain = 0
KHO1 210658Z 18012KT 28/10 A2999 RMK A01 T02750102  RH  034%=      5-min Rain = 0
KHO1 210659Z 17014KT 28/10 A2999 RMK A01 T02760101  RH  034%=      5-min Rain = 0
KHO1 210700Z 17016KT 28/10 A2999 RMK A01 T02760101  RH  034%=      5-min Rain = 0
KHO1 210701Z 17012KT 28/10 A2999 RMK A01 T02760101  RH  034%=      5-min Rain = 0
KHO1 210702Z 18013KT 28/10 A2999 RMK A01 T02750101  RH  034%=      5-min Rain = 0
KHO1 210703Z 17012KT 28/10 A2999 RMK A01 T02750101  RH  034%=      5-min Rain = 0
KHO1 210704Z 17015KT 28/10 A2999 RMK A01 T02750101  RH  034%=      5-min Rain = 0
KHO1 210705Z 17015KT 28/10 A2999 RMK A01 T02750100  RH  033%=      5-min Rain = 0
KHO1 210706Z 17015KT 28/10 A2999 RMK A01 T02760100  RH  033%=      5-min Rain = 0
KHO1 210707Z 17014KT 28/10 A2999 RMK A01 T02750100  RH  033%=      5-min Rain = 0
KHO1 210708Z 17013KT 28/10 A2999 RMK A01 T02750100  RH  033%=      5-min Rain = 0
KHO1 210709Z 18013KT 27/10 A2999 RMK A01 T02740100  RH  033%=      5-min Rain = 0
KHO1 210710Z 17015KT 27/10 A2999 RMK A01 T02740100  RH  033%=      5-min Rain = 0
KHO1 210711Z 18015G20KT 28/10 A2999 RMK A01 T02750099  RH  033%=      5-min Rain = 0
KHO1 210712Z 17013KT 27/10 A2999 RMK A01 T02740099  RH  033%=      5-min Rain = 0
KHO1 210713Z 18012KT 27/10 A2999 RMK A01 T02740099  RH  033%=      5-min Rain = 0
KHO1 210714Z 17012KT 27/10 A2999 RMK A01 T02740099  RH  033%=      5-min Rain = 0
KHO1 210715Z 17011KT 27/10 A2999 RMK A01 T02730099  RH  033%=      5-min Rain = 0
KHO1 210716Z 17013G19KT 27/10 A2999 RMK A01 T02720099  RH  034%=      5-min Rain = 0
KHO1 210717Z 17015KT 27/10 A2999 RMK A01 T02730098  RH  033%=      5-min Rain = 0
KHO1 210718Z 17015KT 27/10 A2999 RMK A01 T02730098  RH  033%=      5-min Rain = 0
KHO1 210719Z 17012KT 27/10 A2999 RMK A01 T02730098  RH  033%=      5-min Rain = 0
KHO1 210720Z 17013KT 27/10 A2999 RMK A01 T02720098  RH  033%=      5-min Rain = 0
KHO1 210721Z 17012KT 27/10 A2999 RMK A01 T02720098  RH  034%=      5-min Rain = 0
KHO1 210722Z 18012KT 27/10 A2999 RMK A01 T02710097  RH  034%=      5-min Rain = 0
KHO1 210723Z 17012KT 27/10 A2999 RMK A01 T02710097  RH  034%=      5-min Rain = 0
KHO1 210724Z 17013KT 27/10 A2999 RMK A01 T02710097  RH  034%=      5-min Rain = 0
KHO1 210725Z 17013KT 27/10 A2999 RMK A01 T02710097  RH  034%=      5-min Rain = 0
KHO1 210726Z 17012KT 27/10 A2999 RMK A01 T02710097  RH  033%=      5-min Rain = 0
KHO1 210727Z 17013KT 27/10 A2999 RMK A01 T02710097  RH  033%=      5-min Rain = 0
KHO1 210728Z 17011KT 27/10 A2999 RMK A01 T02710097  RH  033%=      5-min Rain = 0
KHO1 210729Z 17012KT 27/10 A2999 RMK A01 T02700096  RH  034%=      5-min Rain = 0
KHO1 210730Z 17013KT 27/10 A2999 RMK A01 T02700096  RH  033%=      5-min Rain = 0
KHO1 210731Z 18013KT 27/10 A2999 RMK A01 T02700096  RH  033%=      5-min Rain = 0
KHO1 210732Z 17010KT 27/10 A2999 RMK A01 T02700096  RH  033%=      5-min Rain = 0
KHO1 210733Z 17010KT 27/10 A2999 RMK A01 T02690096  RH  034%=      5-min Rain = 0
KHO1 210734Z 18012KT 27/10 A2999 RMK A01 T02690096  RH  034%=      5-min Rain = 0
KHO1 210735Z 17013KT 27/10 A2999 RMK A01 T02690096  RH  034%=      5-min Rain = 0
KHO1 210736Z 17012G17KT 27/10 A2999 RMK A01 T02690095  RH  033%=      5-min Rain = 0
KHO1 210737Z 17013KT 27/10 A2999 RMK A01 T02690095  RH  033%=      5-min Rain = 0
KHO1 210738Z 17012KT 27/10 A30 RMK A01 T02690095  RH  033%=      5-min Rain = 0
KHO1 210739Z 17010KT 27/10 A30 RMK A01 T02680095  RH  034%=      5-min Rain = 0
KHO1 210740Z 17010KT 27/10 A30 RMK A01 T02680095  RH  034%=      5-min Rain = 0
KHO1 210741Z 17013KT 27/10 A30 RMK A01 T02680095  RH  034%=      5-min Rain = 0
KHO1 210742Z 17012KT 27/10 A30 RMK A01 T02680095  RH  034%=      5-min Rain = 0
KHO1 210743Z 17011KT 27/10 A30 RMK A01 T02680095  RH  034%=      5-min Rain = 0
KHO1 210744Z 17011KT 27/09 A30 RMK A01 T02680094  RH  034%=      5-min Rain = 0
KHO1 210745Z 18011KT 27/09 A30 RMK A01 T02670094  RH  034%=      5-min Rain = 0
KHO1 210746Z 18011KT 27/09 A30 RMK A01 T02670094  RH  034%=      5-min Rain = 0
KHO1 210747Z 17010KT 27/09 A30 RMK A01 T02670094  RH  034%=      5-min Rain = 0
KHO1 210748Z 18012KT 27/09 A30 RMK A01 T02670094  RH  034%=      5-min Rain = 0
KHO1 210749Z 18012KT 27/09 A30 RMK A01 T02670094  RH  034%=      5-min Rain = 0
KHO1 210750Z 17012KT 27/09 A30 RMK A01 T02670093  RH  034%=      5-min Rain = 0
KHO1 210751Z 18012KT 27/09 A30 RMK A01 T02670093  RH  034%=      5-min Rain = 0
KHO1 210752Z 18013KT 27/09 A30 RMK A01 T02670093  RH  033%=      5-min Rain = 0
KHO1 210753Z 17011KT 27/09 A30 RMK A01 T02660093  RH  034%=      5-min Rain = 0
KHO1 210754Z 18012KT 27/09 A30 RMK A01 T02660093  RH  034%=      5-min Rain = 0
KHO1 210755Z 17015KT 27/09 A30 RMK A01 T02660093  RH  033%=      5-min Rain = 0
KHO1 210756Z 17013KT 27/09 A30 RMK A01 T02660092  RH  033%=      5-min Rain = 0
KHO1 210757Z 18011KT 27/09 A30 RMK A01 T02660092  RH  033%=      5-min Rain = 0
KHO1 210758Z 18013KT 27/09 A30 RMK A01 T02650092  RH  034%=      5-min Rain = 0
KHO1 210759Z 18012KT 27/09 A30 RMK A01 T02650092  RH  034%=      5-min Rain = 0
KHO1 210800Z 17013KT 27/09 A30 RMK A01 T02650092  RH  034%=      5-min Rain = 0
KHO1 210801Z 18012KT 27/09 A30 RMK A01 T02650092  RH  034%=      5-min Rain = 0
KHO1 210802Z 18011KT 26/09 A30 RMK A01 T02640091  RH  034%=      5-min Rain = 0
KHO1 210803Z 17012KT 26/09 A30 RMK A01 T02640091  RH  034%=      5-min Rain = 0
KHO1 210804Z 17011KT 26/09 A30 RMK A01 T02640091  RH  034%=      5-min Rain = 0
KHO1 210805Z 17012KT 26/09 A30 RMK A01 T02640091  RH  034%=      5-min Rain = 0
KHO1 210806Z 18011KT 26/09 A30 RMK A01 T02630091  RH  034%=      5-min Rain = 0
KHO1 210807Z 17013KT 26/09 A30 RMK A01 T02630090  RH  034%=      5-min Rain = 0
KHO1 210808Z 17013KT 26/09 A30 RMK A01 T02640090  RH  033%=      5-min Rain = 0
KHO1 210809Z 17012KT 26/09 A30 RMK A01 T02640090  RH  033%=      5-min Rain = 0
KHO1 210810Z 17010KT 26/09 A30 RMK A01 T02640090  RH  033%=      5-min Rain = 0
KHO1 210811Z 17011KT 26/09 A30 RMK A01 T02630090  RH  033%=      5-min Rain = 0
KHO1 210812Z 17011KT 26/09 A30 RMK A01 T02630090  RH  033%=      5-min Rain = 0
KHO1 210813Z 17009KT 26/09 A2999 RMK A01 T02620090  RH  034%=      5-min Rain = 0
KHO1 210814Z 17011KT 26/09 A2999 RMK A01 T02620089  RH  034%=      5-min Rain = 0
KHO1 210815Z 17011KT 26/09 A2999 RMK A01 T02620089  RH  034%=      5-min Rain = 0
KHO1 210816Z 17011KT 26/09 A30 RMK A01 T02620089  RH  033%=      5-min Rain = 0
KHO1 210817Z 17012KT 26/09 A30 RMK A01 T02620089  RH  033%=      5-min Rain = 0
KHO1 210818Z 17011KT 26/09 A30 RMK A01 T02620089  RH  034%=      5-min Rain = 0
KHO1 210819Z 17009KT 26/09 A30 RMK A01 T02610089  RH  034%=      5-min Rain = 0
KHO1 210820Z 18011KT 26/09 A30 RMK A01 T02600088  RH  034%=      5-min Rain = 0
KHO1 210821Z 17012KT 26/09 A30 RMK A01 T02610088  RH  034%=      5-min Rain = 0
KHO1 210822Z 17011KT 26/09 A30 RMK A01 T02610088  RH  034%=      5-min Rain = 0
KHO1 210823Z 17010KT 26/09 A30 RMK A01 T02610088  RH  034%=      5-min Rain = 0
KHO1 210824Z 17009KT 26/09 A2999 RMK A01 T02600088  RH  034%=      5-min Rain = 0
KHO1 210825Z 17010KT 26/09 A2999 RMK A01 T02590088  RH  034%=      5-min Rain = 0
KHO1 210826Z 17009KT 26/09 A2999 RMK A01 T02590088  RH  034%=      5-min Rain = 0
KHO1 210827Z 17010KT 26/09 A2999 RMK A01 T02580087  RH  034%=      5-min Rain = 0
KHO1 210828Z 17011KT 26/09 A2999 RMK A01 T02590087  RH  034%=      5-min Rain = 0
KHO1 210829Z 17011KT 26/09 A2999 RMK A01 T02590087  RH  034%=      5-min Rain = 0
KHO1 210830Z 17010KT 26/09 A2999 RMK A01 T02590087  RH  034%=      5-min Rain = 0
KHO1 210831Z 17011KT 26/09 A2999 RMK A01 T02590087  RH  034%=      5-min Rain = 0
KHO1 210832Z 17010KT 26/09 A2999 RMK A01 T02590087  RH  034%=      5-min Rain = 0
KHO1 210833Z 18010KT 26/09 A2999 RMK A01 T02580087  RH  034%=      5-min Rain = 0
KHO1 210834Z 18010KT 26/09 A2999 RMK A01 T02580087  RH  034%=      5-min Rain = 0
KHO1 210835Z 18011KT 26/09 A2999 RMK A01 T02580086  RH  034%=      5-min Rain = 0
KHO1 210836Z 17010KT 26/09 A2999 RMK A01 T02580086  RH  034%=      5-min Rain = 0
KHO1 210837Z 18011KT 26/09 A2999 RMK A01 T02580086  RH  034%=      5-min Rain = 0
KHO1 210838Z 17011KT 26/09 A2999 RMK A01 T02580086  RH  034%=      5-min Rain = 0
KHO1 210839Z 18012KT 26/09 A2999 RMK A01 T02580086  RH  033%=      5-min Rain = 0
KHO1 210840Z 18010KT 26/09 A2999 RMK A01 T02580085  RH  034%=      5-min Rain = 0
KHO1 210841Z 18010KT 26/09 A2999 RMK A01 T02570085  RH  034%=      5-min Rain = 0
KHO1 210842Z 17011KT 26/09 A2999 RMK A01 T02570085  RH  034%=      5-min Rain = 0
KHO1 210843Z 17010KT 26/09 A2999 RMK A01 T02560085  RH  034%=      5-min Rain = 0
KHO1 210844Z 18010KT 26/09 A2999 RMK A01 T02560085  RH  034%=      5-min Rain = 0
KHO1 210845Z 18010KT 26/09 A2999 RMK A01 T02560085  RH  034%=      5-min Rain = 0
KHO1 210846Z 18010KT 26/09 A2999 RMK A01 T02560085  RH  034%=      5-min Rain = 0
KHO1 210847Z 18011KT 26/09 A2999 RMK A01 T02560085  RH  034%=      5-min Rain = 0
KHO1 210848Z 18010KT 26/09 A2999 RMK A01 T02560085  RH  034%=      5-min Rain = 0
KHO1 210849Z 18011KT 26/08 A2999 RMK A01 T02550084  RH  034%=      5-min Rain = 0
KHO1 210850Z 17011KT 26/08 A2999 RMK A01 T02550084  RH  034%=      5-min Rain = 0
KHO1 210851Z 17012KT 26/08 A2998 RMK A01 T02550084  RH  034%=      5-min Rain = 0
KHO1 210852Z 17011KT 26/08 A2998 RMK A01 T02560084  RH  034%=      5-min Rain = 0
KHO1 210853Z 17009KT 26/08 A2998 RMK A01 T02550084  RH  034%=      5-min Rain = 0
KHO1 210854Z 17010KT 26/08 A2998 RMK A01 T02550084  RH  034%=      5-min Rain = 0
KHO1 210855Z 17009KT 26/08 A2999 RMK A01 T02550084  RH  034%=      5-min Rain = 0
KHO1 210856Z 17010KT 25/08 A2999 RMK A01 T02540083  RH  034%=      5-min Rain = 0
KHO1 210857Z 17011KT 25/08 A2998 RMK A01 T02540083  RH  034%=      5-min Rain = 0
KHO1 210858Z 17010KT 25/08 A2999 RMK A01 T02540083  RH  034%=      5-min Rain = 0
KHO1 210859Z 17010KT 25/08 A2998 RMK A01 T02540083  RH  034%=      5-min Rain = 0
KHO1 210900Z 17010KT 25/08 A2998 RMK A01 T02540083  RH  034%=      5-min Rain = 0
KHO1 210901Z 17010KT 25/08 A2998 RMK A01 T02540083  RH  034%=      5-min Rain = 0
KHO1 210902Z 17009KT 25/08 A2998 RMK A01 T02540083  RH  034%=      5-min Rain = 0
KHO1 210903Z 17010KT 25/08 A2998 RMK A01 T02540083  RH  034%=      5-min Rain = 0
KHO1 210904Z 17009KT 25/08 A2998 RMK A01 T02530083  RH  034%=      5-min Rain = 0
KHO1 210905Z 17008KT 25/08 A2998 RMK A01 T02530083  RH  034%=      5-min Rain = 0
KHO1 210906Z 17009KT 25/08 A2999 RMK A01 T02520083  RH  034%=      5-min Rain = 0
KHO1 210907Z 17010KT 25/08 A2998 RMK A01 T02520082  RH  034%=      5-min Rain = 0
KHO1 210908Z 17009KT 25/08 A2998 RMK A01 T02520082  RH  034%=      5-min Rain = 0
KHO1 210909Z 17009KT 25/08 A2999 RMK A01 T02520082  RH  034%=      5-min Rain = 0
KHO1 210910Z 17011KT 25/08 A2999 RMK A01 T02530082  RH  034%=      5-min Rain = 0
KHO1 210911Z 17010KT 25/08 A2999 RMK A01 T02530082  RH  034%=      5-min Rain = 0
KHO1 210912Z 18008KT 25/08 A2999 RMK A01 T02530082  RH  034%=      5-min Rain = 0
KHO1 210913Z 17010KT 25/08 A2999 RMK A01 T02520082  RH  034%=      5-min Rain = 0
KHO1 210914Z 17009KT 25/08 A2999 RMK A01 T02520082  RH  034%=      5-min Rain = 0
KHO1 210915Z 17008KT 25/08 A2999 RMK A01 T02520082  RH  034%=      5-min Rain = 0
KHO1 210916Z 17008KT 25/08 A2999 RMK A01 T02510082  RH  034%=      5-min Rain = 0
KHO1 210917Z 17007KT 25/08 A2999 RMK A01 T02510082  RH  034%=      5-min Rain = 0
KHO1 210918Z 17009KT 25/08 A2999 RMK A01 T02500082  RH  034%=      5-min Rain = 0
KHO1 210919Z 17008KT 25/08 A2999 RMK A01 T02500082  RH  034%=      5-min Rain = 0
KHO1 210920Z 17009KT 25/08 A2999 RMK A01 T02500081  RH  034%=      5-min Rain = 0
KHO1 210921Z 17009KT 25/08 A2999 RMK A01 T02500082  RH  034%=      5-min Rain = 0
KHO1 210922Z 17008KT 25/08 A2999 RMK A01 T02500081  RH  034%=      5-min Rain = 0
KHO1 210923Z 17009KT 25/08 A2999 RMK A01 T02490081  RH  034%=      5-min Rain = 0
KHO1 210924Z 17010KT 25/08 A2999 RMK A01 T02490081  RH  034%=      5-min Rain = 0
KHO1 210925Z 17010KT 25/08 A2999 RMK A01 T02490081  RH  034%=      5-min Rain = 0
KHO1 210926Z 17009KT 25/08 A2999 RMK A01 T02490081  RH  034%=      5-min Rain = 0
KHO1 210927Z 17007KT 25/08 A2999 RMK A01 T02490081  RH  034%=      5-min Rain = 0
KHO1 210928Z 17010KT 25/08 A2998 RMK A01 T02480081  RH  034%=      5-min Rain = 0
KHO1 210929Z 17009KT 25/08 A2998 RMK A01 T02480081  RH  034%=      5-min Rain = 0
KHO1 210930Z 17009KT 25/08 A2998 RMK A01 T02480081  RH  034%=      5-min Rain = 0
KHO1 210931Z 17007KT 25/08 A2999 RMK A01 T02480081  RH  035%=      5-min Rain = 0
KHO1 210932Z 17009KT 25/08 A2999 RMK A01 T02470081  RH  035%=      5-min Rain = 0
KHO1 210933Z 17008KT 25/08 A2999 RMK A01 T02470081  RH  035%=      5-min Rain = 0
KHO1 210934Z 17009KT 25/08 A2999 RMK A01 T02470081  RH  035%=      5-min Rain = 0
KHO1 210935Z 17008KT 25/08 A2999 RMK A01 T02470081  RH  035%=      5-min Rain = 0
KHO1 210936Z 17008KT 25/08 A2999 RMK A01 T02460081  RH  035%=      5-min Rain = 0
KHO1 210937Z 17009KT 25/08 A2999 RMK A01 T02460081  RH  035%=      5-min Rain = 0
KHO1 210938Z 17008KT 25/08 A2999 RMK A01 T02460081  RH  035%=      5-min Rain = 0
KHO1 210939Z 17008KT 25/08 A2999 RMK A01 T02460081  RH  035%=      5-min Rain = 0
KHO1 210940Z 17009KT 25/08 A2999 RMK A01 T02460081  RH  035%=      5-min Rain = 0
KHO1 210941Z 17008KT 25/08 A2999 RMK A01 T02450081  RH  035%=      5-min Rain = 0
KHO1 210942Z 17008KT 25/08 A2998 RMK A01 T02450081  RH  035%=      5-min Rain = 0
KHO1 210943Z 17010KT 25/08 A2998 RMK A01 T02450081  RH  035%=      5-min Rain = 0
KHO1 210944Z 17008KT 25/08 A2998 RMK A01 T02450081  RH  035%=      5-min Rain = 0
KHO1 210945Z 17008KT 25/08 A2998 RMK A01 T02450081  RH  035%=      5-min Rain = 0
KHO1 210946Z 17009KT 25/08 A2998 RMK A01 T02450080  RH  035%=      5-min Rain = 0
KHO1 210947Z 17008KT 25/08 A2998 RMK A01 T02450081  RH  035%=      5-min Rain = 0
KHO1 210948Z 17008KT 24/08 A2999 RMK A01 T02440081  RH  035%=      5-min Rain = 0
KHO1 210949Z 17008KT 24/08 A2999 RMK A01 T02430081  RH  035%=      5-min Rain = 0
KHO1 210950Z 17008KT 24/08 A2999 RMK A01 T02430081  RH  035%=      5-min Rain = 0
KHO1 210951Z 17008KT 24/08 A2999 RMK A01 T02430081  RH  035%=      5-min Rain = 0
KHO1 210952Z 17008KT 24/08 A2999 RMK A01 T02430081  RH  035%=      5-min Rain = 0
KHO1 210953Z 17007KT 24/08 A2999 RMK A01 T02430081  RH  035%=      5-min Rain = 0
KHO1 210954Z 17008KT 24/08 A2999 RMK A01 T02430081  RH  035%=      5-min Rain = 0
KHO1 210955Z 17008KT 24/08 A2999 RMK A01 T02430080  RH  035%=      5-min Rain = 0
KHO1 210956Z 17008KT 24/08 A2999 RMK A01 T02430080  RH  035%=      5-min Rain = 0
KHO1 210957Z 17007KT 24/08 A2999 RMK A01 T02420080  RH  036%=      5-min Rain = 0
KHO1 210958Z 17008KT 24/08 A2999 RMK A01 T02420080  RH  036%=      5-min Rain = 0
KHO1 210959Z 17008KT 24/08 A2999 RMK A01 T02420080  RH  036%=      5-min Rain = 0
KHO1 211000Z 17008KT 24/08 A2999 RMK A01 T02420080  RH  035%=      5-min Rain = 0
KHO1 211001Z 17008KT 24/08 A2999 RMK A01 T02430080  RH  035%=      5-min Rain = 0
KHO1 211002Z 17007KT 24/08 A2999 RMK A01 T02420080  RH  035%=      5-min Rain = 0
KHO1 211003Z 17008KT 24/08 A2999 RMK A01 T02420080  RH  035%=      5-min Rain = 0
KHO1 211004Z 17007KT 24/08 A2999 RMK A01 T02420080  RH  035%=      5-min Rain = 0
KHO1 211005Z 17008KT 24/08 A2999 RMK A01 T02410080  RH  036%=      5-min Rain = 0
KHO1 211006Z 17007KT 24/08 A2999 RMK A01 T02410080  RH  036%=      5-min Rain = 0
KHO1 211007Z 17007KT 24/08 A2999 RMK A01 T02400080  RH  036%=      5-min Rain = 0
KHO1 211008Z 17008KT 24/08 A2999 RMK A01 T02400080  RH  036%=      5-min Rain = 0
KHO1 211009Z 17007KT 24/08 A2999 RMK A01 T02400080  RH  036%=      5-min Rain = 0
KHO1 211010Z 17007KT 24/08 A2999 RMK A01 T02400080  RH  036%=      5-min Rain = 0
KHO1 211011Z 17009KT 24/08 A2999 RMK A01 T02410079  RH  036%=      5-min Rain = 0
KHO1 211012Z 17008KT 24/08 A2999 RMK A01 T02410079  RH  036%=      5-min Rain = 0
KHO1 211013Z 17007KT 24/08 A2999 RMK A01 T02410079  RH  035%=      5-min Rain = 0
KHO1 211014Z 17007KT 24/08 A2999 RMK A01 T02410079  RH  036%=      5-min Rain = 0
KHO1 211015Z 17008KT 24/08 A2999 RMK A01 T02400079  RH  036%=      5-min Rain = 0
KHO1 211016Z 18008KT 24/08 A2999 RMK A01 T02400079  RH  036%=      5-min Rain = 0
KHO1 211017Z 17007KT 24/08 A2999 RMK A01 T02400079  RH  036%=      5-min Rain = 0
KHO1 211018Z 17008KT 24/08 A2999 RMK A01 T02400079  RH  036%=      5-min Rain = 0
KHO1 211019Z 17007KT 24/08 A2999 RMK A01 T02390079  RH  036%=      5-min Rain = 0
KHO1 211020Z 17008KT 24/08 A2999 RMK A01 T02390079  RH  036%=      5-min Rain = 0
KHO1 211021Z 17008KT 24/08 A2999 RMK A01 T02390079  RH  036%=      5-min Rain = 0
KHO1 211022Z 17008KT 24/08 A2999 RMK A01 T02390079  RH  036%=      5-min Rain = 0
KHO1 211023Z 17008KT 24/08 A2999 RMK A01 T02390079  RH  036%=      5-min Rain = 0
KHO1 211024Z 17007KT 24/08 A2999 RMK A01 T02390079  RH  036%=      5-min Rain = 0
KHO1 211025Z 17008KT 24/08 A2999 RMK A01 T02390079  RH  036%=      5-min Rain = 0
KHO1 211026Z 18009KT 24/08 A2999 RMK A01 T02390079  RH  036%=      5-min Rain = 0
KHO1 211027Z 17008KT 24/08 A2999 RMK A01 T02390078  RH  036%=      5-min Rain = 0
KHO1 211028Z 18008KT 24/08 A2999 RMK A01 T02390078  RH  036%=      5-min Rain = 0
KHO1 211029Z 17008KT 24/08 A2999 RMK A01 T02390078  RH  036%=      5-min Rain = 0
KHO1 211030Z 17007KT 24/08 A2999 RMK A01 T02380078  RH  036%=      5-min Rain = 0
KHO1 211031Z 17008KT 24/08 A2999 RMK A01 T02380078  RH  036%=      5-min Rain = 0
KHO1 211032Z 17007KT 24/08 A2999 RMK A01 T02380078  RH  036%=      5-min Rain = 0
KHO1 211033Z 17008KT 24/08 A2999 RMK A01 T02380078  RH  036%=      5-min Rain = 0
KHO1 211034Z 17008KT 24/08 A2999 RMK A01 T02380078  RH  036%=      5-min Rain = 0
KHO1 211035Z 17008KT 24/08 A2999 RMK A01 T02380078  RH  036%=      5-min Rain = 0
KHO1 211036Z 17008KT 24/08 A2999 RMK A01 T02380078  RH  036%=      5-min Rain = 0
KHO1 211037Z 17007KT 24/08 A2999 RMK A01 T02380078  RH  036%=      5-min Rain = 0
KHO1 211038Z 17008KT 24/08 A2999 RMK A01 T02370078  RH  036%=      5-min Rain = 0
KHO1 211039Z 17009KT 24/08 A2999 RMK A01 T02380078  RH  036%=      5-min Rain = 0
KHO1 211040Z 17008KT 24/08 A2999 RMK A01 T02380078  RH  036%=      5-min Rain = 0
KHO1 211041Z 16009KT 24/08 A2999 RMK A01 T02380078  RH  036%=      5-min Rain = 0
KHO1 211042Z 17008KT 24/08 A2999 RMK A01 T02380078  RH  036%=      5-min Rain = 0
KHO1 211043Z 16008KT 24/08 A2999 RMK A01 T02380078  RH  036%=      5-min Rain = 0
KHO1 211044Z 17009KT 24/08 A2999 RMK A01 T02380077  RH  036%=      5-min Rain = 0
KHO1 211045Z 17008KT 24/08 A2999 RMK A01 T02380077  RH  036%=      5-min Rain = 0
KHO1 211046Z 17007KT 24/08 A2999 RMK A01 T02370077  RH  036%=      5-min Rain = 0
KHO1 211047Z 17008KT 24/08 A2999 RMK A01 T02370077  RH  036%=      5-min Rain = 0
KHO1 211048Z 17008KT 24/08 A2999 RMK A01 T02370077  RH  036%=      5-min Rain = 0
KHO1 211049Z 17008KT 24/08 A2999 RMK A01 T02370077  RH  036%=      5-min Rain = 0
KHO1 211050Z 17008KT 24/08 A30 RMK A01 T02370077  RH  036%=      5-min Rain = 0
KHO1 211051Z 16007KT 24/08 A30 RMK A01 T02360077  RH  036%=      5-min Rain = 0
KHO1 211052Z 16008KT 24/08 A2999 RMK A01 T02360077  RH  036%=      5-min Rain = 0
KHO1 211053Z 16008KT 24/08 A30 RMK A01 T02360077  RH  036%=      5-min Rain = 0
KHO1 211054Z 16008KT 24/08 A30 RMK A01 T02360077  RH  036%=      5-min Rain = 0
KHO1 211055Z 17008KT 24/08 A30 RMK A01 T02360077  RH  036%=      5-min Rain = 0
KHO1 211056Z 16008KT 24/08 A30 RMK A01 T02360077  RH  036%=      5-min Rain = 0
KHO1 211057Z 17008KT 24/08 A30 RMK A01 T02360077  RH  036%=      5-min Rain = 0
KHO1 211058Z 17008KT 24/08 A30 RMK A01 T02360077  RH  036%=      5-min Rain = 0
KHO1 211059Z 17008KT 24/08 A30 RMK A01 T02360077  RH  036%=      5-min Rain = 0
KHO1 211100Z 17007KT 24/08 A30 RMK A01 T02360077  RH  036%=      5-min Rain = 0
KHO1 211101Z 17007KT 24/08 A30 RMK A01 T02350077  RH  036%=      5-min Rain = 0
KHO1 211102Z 17007KT 23/08 A30 RMK A01 T02340077  RH  036%=      5-min Rain = 0
KHO1 211103Z 17007KT 24/08 A30 RMK A01 T02350077  RH  036%=      5-min Rain = 0
KHO1 211104Z 17007KT 24/08 A30 RMK A01 T02350077  RH  036%=      5-min Rain = 0
KHO1 211105Z 17006KT 23/08 A30 RMK A01 T02340077  RH  036%=      5-min Rain = 0
KHO1 211106Z 17007KT 23/08 A30 RMK A01 T02340077  RH  036%=      5-min Rain = 0
KHO1 211107Z 17007KT 23/08 A30 RMK A01 T02340077  RH  036%=      5-min Rain = 0
KHO1 211108Z 18007KT 23/08 A30 RMK A01 T02340077  RH  036%=      5-min Rain = 0
KHO1 211109Z 18007KT 23/08 A30 RMK A01 T02340076  RH  036%=      5-min Rain = 0
KHO1 211110Z 18007KT 23/08 A30 RMK A01 T02340076  RH  036%=      5-min Rain = 0
KHO1 211111Z 18007KT 23/08 A30 RMK A01 T02340076  RH  036%=      5-min Rain = 0
KHO1 211112Z 17007KT 23/08 A30 RMK A01 T02340076  RH  036%=      5-min Rain = 0
KHO1 211113Z 18007KT 23/08 A30 RMK A01 T02340076  RH  036%=      5-min Rain = 0
KHO1 211114Z 17007KT 23/08 A30 RMK A01 T02340076  RH  036%=      5-min Rain = 0
KHO1 211115Z 17007KT 23/08 A30 RMK A01 T02340076  RH  036%=      5-min Rain = 0
KHO1 211116Z 17007KT 23/08 A30 RMK A01 T02340076  RH  036%=      5-min Rain = 0
KHO1 211117Z 17007KT 23/08 A30 RMK A01 T02340076  RH  036%=      5-min Rain = 0
KHO1 211118Z 17007KT 24/08 A30 RMK A01 T02350075  RH  036%=      5-min Rain = 0
KHO1 211119Z 17007KT 24/08 A30 RMK A01 T02350075  RH  036%=      5-min Rain = 0
KHO1 211120Z 17008KT 24/08 A30 RMK A01 T02350075  RH  036%=      5-min Rain = 0
KHO1 211121Z 17007KT 24/08 A30 RMK A01 T02350075  RH  036%=      5-min Rain = 0
KHO1 211122Z 17007KT 23/08 A30 RMK A01 T02340075  RH  036%=      5-min Rain = 0
KHO1 211123Z 17008KT 23/08 A30 RMK A01 T02340075  RH  036%=      5-min Rain = 0
KHO1 211124Z 17007KT 23/08 A30 RMK A01 T02340075  RH  036%=      5-min Rain = 0
KHO1 211125Z 17007KT 23/08 A30 RMK A01 T02340075  RH  036%=      5-min Rain = 0
KHO1 211126Z 17007KT 23/07 A30 RMK A01 T02340074  RH  036%=      5-min Rain = 0
KHO1 211127Z 18006KT 23/08 A30 RMK A01 T02340075  RH  036%=      5-min Rain = 0
KHO1 211128Z 18006KT 23/08 A30 RMK A01 T02330075  RH  036%=      5-min Rain = 0
KHO1 211129Z 18007KT 23/08 A30 RMK A01 T02330075  RH  036%=      5-min Rain = 0
KHO1 211130Z 18007KT 23/08 A30 RMK A01 T02330075  RH  036%=      5-min Rain = 0
KHO1 211131Z 18007KT 23/07 A30 RMK A01 T02330074  RH  036%=      5-min Rain = 0
KHO1 211132Z 18006KT 23/08 A30 RMK A01 T02330075  RH  036%=      5-min Rain = 0
KHO1 211133Z 17006KT 23/08 A30 RMK A01 T02330075  RH  036%=      5-min Rain = 0
KHO1 211134Z 17007KT 23/07 A30 RMK A01 T02320074  RH  036%=      5-min Rain = 0
KHO1 211135Z 17007KT 23/07 A30 RMK A01 T02330074  RH  036%=      5-min Rain = 0
KHO1 211136Z 17008KT 23/07 A30 RMK A01 T02330074  RH  036%=      5-min Rain = 0
KHO1 211137Z 17008KT 23/07 A30 RMK A01 T02330074  RH  036%=      5-min Rain = 0
KHO1 211138Z 17008KT 23/07 A30 RMK A01 T02330074  RH  036%=      5-min Rain = 0
KHO1 211139Z 17009KT 23/07 A30 RMK A01 T02330074  RH  036%=      5-min Rain = 0
KHO1 211140Z 17009KT 23/07 A30 RMK A01 T02330073  RH  036%=      5-min Rain = 0
KHO1 211141Z 17009KT 23/07 A30 RMK A01 T02330073  RH  036%=      5-min Rain = 0
KHO1 211142Z 17009KT 23/07 A30 RMK A01 T02330073  RH  036%=      5-min Rain = 0
KHO1 211143Z 17009KT 23/07 A30 RMK A01 T02330073  RH  036%=      5-min Rain = 0
KHO1 211144Z 17008KT 23/07 A30 RMK A01 T02330073  RH  036%=      5-min Rain = 0
KHO1 211145Z 17008KT 23/07 A30 RMK A01 T02320073  RH  036%=      5-min Rain = 0
KHO1 211146Z 17009KT 23/07 A30 RMK A01 T02320073  RH  036%=      5-min Rain = 0
KHO1 211147Z 17008KT 23/07 A30 RMK A01 T02320073  RH  036%=      5-min Rain = 0
KHO1 211148Z 17008KT 23/07 A30 RMK A01 T02310073  RH  036%=      5-min Rain = 0
KHO1 211149Z 17008KT 23/07 A30 RMK A01 T02310074  RH  036%=      5-min Rain = 0
KHO1 211150Z 17008KT 23/07 A30 RMK A01 T02310074  RH  036%=      5-min Rain = 0
KHO1 211151Z 17008KT 23/07 A30 RMK A01 T02310074  RH  036%=      5-min Rain = 0
KHO1 211152Z 17008KT 23/07 A30 RMK A01 T02310073  RH  036%=      5-min Rain = 0
KHO1 211153Z 16007KT 23/07 A30 RMK A01 T02310074  RH  036%=      5-min Rain = 0
KHO1 211154Z 16007KT 23/07 A30 RMK A01 T02300074  RH  036%=      5-min Rain = 0
KHO1 211155Z 16007KT 23/07 A30 RMK A01 T02300074  RH  037%=      5-min Rain = 0
KHO1 211156Z 17006KT 23/07 A30 RMK A01 T02300074  RH  037%=      5-min Rain = 0
KHO1 211157Z 17007KT 23/07 A30 RMK A01 T02300074  RH  037%=      5-min Rain = 0
KHO1 211158Z 17007KT 23/07 A30 RMK A01 T02300074  RH  037%=      5-min Rain = 0
KHO1 211159Z 17007KT 23/07 A30 RMK A01 T02300074  RH  037%=      5-min Rain = 0
KHO1 211200Z 17007KT 23/07 A30 RMK A01 T02300074  RH  037%=      5-min Rain = 0
KHO1 211201Z 17007KT 23/07 A30 RMK A01 T02300073  RH  037%=      5-min Rain = 0
KHO1 211202Z 16007KT 23/07 A30 RMK A01 T02300073  RH  037%=      5-min Rain = 0
KHO1 211203Z 16007KT 23/07 A30 RMK A01 T02300073  RH  036%=      5-min Rain = 0
KHO1 211204Z 17007KT 23/07 A30 RMK A01 T02300073  RH  037%=      5-min Rain = 0
KHO1 211205Z 16007KT 23/07 A30 RMK A01 T02300073  RH  037%=      5-min Rain = 0
KHO1 211206Z 16008KT 23/07 A30 RMK A01 T02290073  RH  037%=      5-min Rain = 0
KHO1 211207Z 16007KT 23/07 A30 RMK A01 T02290073  RH  037%=      5-min Rain = 0
KHO1 211208Z 16007KT 23/07 A30 RMK A01 T02300073  RH  036%=      5-min Rain = 0
KHO1 211209Z 16007KT 23/07 A30 RMK A01 T02300073  RH  036%=      5-min Rain = 0
KHO1 211210Z 16007KT 23/07 A30 RMK A01 T02300073  RH  036%=      5-min Rain = 0
KHO1 211211Z 16007KT 23/07 A30 RMK A01 T02300073  RH  036%=      5-min Rain = 0
KHO1 211212Z 17008KT 23/07 A30 RMK A01 T02300073  RH  036%=      5-min Rain = 0
KHO1 211213Z 17007KT 23/07 A30 RMK A01 T02310073  RH  036%=      5-min Rain = 0
KHO1 211214Z 17008KT 23/07 A30 RMK A01 T02310073  RH  036%=      5-min Rain = 0
KHO1 211215Z 16009KT 23/07 A30 RMK A01 T02310072  RH  036%=      5-min Rain = 0
KHO1 211216Z 16009KT 23/07 A30 RMK A01 T02310072  RH  036%=      5-min Rain = 0
KHO1 211217Z 16008KT 23/07 A30 RMK A01 T02310072  RH  036%=      5-min Rain = 0
KHO1 211218Z 16009KT 23/07 A30 RMK A01 T02310072  RH  036%=      5-min Rain = 0
KHO1 211219Z 16009KT 23/07 A30 RMK A01 T02310072  RH  036%=      5-min Rain = 0
KHO1 211220Z 17009KT 23/07 A30 RMK A01 T02310072  RH  036%=      5-min Rain = 0
KHO1 211221Z 16009KT 23/07 A30 RMK A01 T02320072  RH  036%=      5-min Rain = 0
KHO1 211222Z 17009KT 23/07 A30 RMK A01 T02320072  RH  036%=      5-min Rain = 0
KHO1 211223Z 17007KT 23/07 A30 RMK A01 T02320072  RH  036%=      5-min Rain = 0
KHO1 211224Z 17008KT 23/07 A30 RMK A01 T02310072  RH  036%=      5-min Rain = 0
KHO1 211225Z 17007KT 23/07 A30 RMK A01 T02310072  RH  036%=      5-min Rain = 0
KHO1 211226Z 17007KT 23/07 A30 RMK A01 T02310072  RH  036%=      5-min Rain = 0
KHO1 211227Z 17008KT 23/07 A30 RMK A01 T02310072  RH  036%=      5-min Rain = 0
KHO1 211228Z 17008KT 23/07 A30 RMK A01 T02310072  RH  036%=      5-min Rain = 0
KHO1 211229Z 16009KT 23/07 A30 RMK A01 T02310072  RH  036%=      5-min Rain = 0
KHO1 211230Z 17008KT 23/07 A30 RMK A01 T02310072  RH  036%=      5-min Rain = 0
KHO1 211231Z 17007KT 23/07 A30 RMK A01 T02310073  RH  036%=      5-min Rain = 0
KHO1 211232Z 17007KT 23/07 A30 RMK A01 T02310073  RH  036%=      5-min Rain = 0
KHO1 211233Z 17007KT 23/07 A30 RMK A01 T02300073  RH  036%=      5-min Rain = 0
KHO1 211234Z 16009KT 23/07 A30 RMK A01 T02310073  RH  036%=      5-min Rain = 0
KHO1 211235Z 16009KT 23/07 A30 RMK A01 T02310073  RH  036%=      5-min Rain = 0
KHO1 211236Z 16008KT 23/07 A30 RMK A01 T02310072  RH  036%=      5-min Rain = 0
KHO1 211237Z 16008KT 23/07 A30 RMK A01 T02310073  RH  036%=      5-min Rain = 0
KHO1 211238Z 16009KT 23/07 A30 RMK A01 T02310072  RH  036%=      5-min Rain = 0
KHO1 211239Z 16008KT 23/07 A30 RMK A01 T02310073  RH  036%=      5-min Rain = 0
KHO1 211240Z 16008KT 23/07 A30 RMK A01 T02310072  RH  036%=      5-min Rain = 0
KHO1 211241Z 16008KT 23/07 A30 RMK A01 T02310073  RH  036%=      5-min Rain = 0
KHO1 211242Z 16008KT 23/07 A30 RMK A01 T02310073  RH  036%=      5-min Rain = 0
KHO1 211243Z 17009KT 23/07 A30 RMK A01 T02320072  RH  036%=      5-min Rain = 0
KHO1 211244Z 17009KT 23/07 A30 RMK A01 T02320072  RH  036%=      5-min Rain = 0
KHO1 211245Z 16010KT 23/07 A30 RMK A01 T02330072  RH  036%=      5-min Rain = 0
KHO1 211246Z 16009KT 23/07 A30 RMK A01 T02330072  RH  036%=      5-min Rain = 0
KHO1 211247Z 16010KT 23/07 A30 RMK A01 T02330072  RH  035%=      5-min Rain = 0
KHO1 211248Z 16010KT 23/07 A30 RMK A01 T02330072  RH  035%=      5-min Rain = 0
KHO1 211249Z 17009KT 23/07 A30 RMK A01 T02330072  RH  035%=      5-min Rain = 0
KHO1 211250Z 17010KT 23/07 A30 RMK A01 T02330071  RH  035%=      5-min Rain = 0
KHO1 211251Z 17009KT 23/07 A30 RMK A01 T02330072  RH  035%=      5-min Rain = 0
KHO1 211252Z 17010KT 23/07 A30 RMK A01 T02330072  RH  035%=      5-min Rain = 0
KHO1 211253Z 17008KT 23/07 A30 RMK A01 T02340072  RH  035%=      5-min Rain = 0
KHO1 211254Z 17009KT 23/07 A30 RMK A01 T02340072  RH  035%=      5-min Rain = 0
KHO1 211255Z 17010KT 23/07 A30 RMK A01 T02340072  RH  035%=      5-min Rain = 0
KHO1 211256Z 17009KT 23/07 A30 RMK A01 T02340073  RH  035%=      5-min Rain = 0
KHO1 211257Z 17009KT 23/07 A30 RMK A01 T02340072  RH  035%=      5-min Rain = 0
KHO1 211258Z 17010KT 23/07 A30 RMK A01 T02340072  RH  035%=      5-min Rain = 0
KHO1 211259Z 17010KT 24/07 A30 RMK A01 T02350072  RH  035%=      5-min Rain = 0
KHO1 211300Z 17009KT 24/07 A30 RMK A01 T02350073  RH  035%=      5-min Rain = 0
KHO1 211301Z 17009KT 24/07 A30 RMK A01 T02350073  RH  035%=      5-min Rain = 0
KHO1 211302Z 17008KT 24/07 A30 RMK A01 T02350073  RH  035%=      5-min Rain = 0
KHO1 211303Z 18010KT 24/07 A3001 RMK A01 T02350073  RH  035%=      5-min Rain = 0
KHO1 211304Z 18010KT 24/07 A3001 RMK A01 T02350072  RH  035%=      5-min Rain = 0
KHO1 211305Z 17010KT 24/07 A3001 RMK A01 T02350073  RH  035%=      5-min Rain = 0
KHO1 211306Z 17011KT 24/07 A3001 RMK A01 T02360072  RH  035%=      5-min Rain = 0
KHO1 211307Z 17010KT 24/07 A30 RMK A01 T02360072  RH  035%=      5-min Rain = 0
KHO1 211308Z 17009KT 24/07 A30 RMK A01 T02370073  RH  035%=      5-min Rain = 0
KHO1 211309Z 17011KT 24/07 A30 RMK A01 T02380072  RH  035%=      5-min Rain = 0
KHO1 211310Z 17010KT 24/07 A30 RMK A01 T02380072  RH  035%=      5-min Rain = 0
KHO1 211311Z 17009KT 24/07 A3001 RMK A01 T02380073  RH  035%=      5-min Rain = 0
KHO1 211312Z 18009KT 24/07 A3001 RMK A01 T02390073  RH  034%=      5-min Rain = 0
KHO1 211313Z 18010KT 24/07 A3001 RMK A01 T02400073  RH  034%=      5-min Rain = 0
KHO1 211314Z 18010KT 24/07 A3001 RMK A01 T02400073  RH  034%=      5-min Rain = 0
KHO1 211315Z 18010KT 24/07 A3001 RMK A01 T02410073  RH  034%=      5-min Rain = 0
KHO1 211316Z 17012KT 24/07 A3001 RMK A01 T02410073  RH  034%=      5-min Rain = 0
KHO1 211317Z 18012KT 24/07 A3001 RMK A01 T02420073  RH  034%=      5-min Rain = 0
KHO1 211318Z 17012KT 24/07 A3001 RMK A01 T02420073  RH  034%=      5-min Rain = 0
KHO1 211319Z 18011KT 24/07 A3002 RMK A01 T02420073  RH  034%=      5-min Rain = 0
KHO1 211320Z 17011KT 24/07 A3002 RMK A01 T02430073  RH  034%=      5-min Rain = 0
KHO1 211321Z 18012KT 24/07 A3002 RMK A01 T02430073  RH  034%=      5-min Rain = 0
KHO1 211322Z 18013KT 24/07 A3002 RMK A01 T02430073  RH  034%=      5-min Rain = 0
KHO1 211323Z 18014KT 24/07 A3002 RMK A01 T02420072  RH  034%=      5-min Rain = 0
KHO1 211324Z 18013KT 24/07 A3002 RMK A01 T02420073  RH  034%=      5-min Rain = 0
KHO1 211325Z 18011KT 24/07 A3002 RMK A01 T02430073  RH  034%=      5-min Rain = 0
KHO1 211326Z 17011KT 24/07 A3002 RMK A01 T02430073  RH  034%=      5-min Rain = 0
KHO1 211327Z 18011KT 24/07 A3002 RMK A01 T02430073  RH  034%=      5-min Rain = 0
KHO1 211328Z 17011KT 24/07 A3002 RMK A01 T02430073  RH  034%=      5-min Rain = 0
KHO1 211329Z 18010KT 24/07 A3002 RMK A01 T02430073  RH  034%=      5-min Rain = 0
KHO1 211330Z 17008KT 24/07 A3002 RMK A01 T02430074  RH  034%=      5-min Rain = 0
KHO1 211331Z 18013KT 24/07 A3002 RMK A01 T02430074  RH  034%=      5-min Rain = 0
KHO1 211332Z 18011KT 24/07 A3002 RMK A01 T02430074  RH  034%=      5-min Rain = 0
KHO1 211333Z 18011KT 24/07 A3002 RMK A01 T02430074  RH  034%=      5-min Rain = 0
KHO1 211334Z 18008KT 24/08 A3002 RMK A01 T02440075  RH  034%=      5-min Rain = 0
KHO1 211335Z 18008KT 24/08 A3002 RMK A01 T02440075  RH  034%=      5-min Rain = 0
KHO1 211336Z 19010KT 24/08 A3002 RMK A01 T02440075  RH  034%=      5-min Rain = 0
KHO1 211337Z 19011KT 25/08 A3002 RMK A01 T02450075  RH  034%=      5-min Rain = 0
KHO1 211338Z 19010KT 25/08 A3002 RMK A01 T02450075  RH  034%=      5-min Rain = 0
KHO1 211339Z 19010KT 25/08 A3002 RMK A01 T02450075  RH  034%=      5-min Rain = 0
KHO1 211340Z 18011KT 25/08 A3002 RMK A01 T02460075  RH  034%=      5-min Rain = 0
KHO1 211341Z 18012KT 25/08 A3002 RMK A01 T02460075  RH  033%=      5-min Rain = 0
KHO1 211342Z 18012KT 25/08 A3002 RMK A01 T02460075  RH  033%=      5-min Rain = 0
KHO1 211343Z 18011KT 25/08 A3002 RMK A01 T02460075  RH  033%=      5-min Rain = 0
KHO1 211344Z 18010KT 25/08 A3002 RMK A01 T02470076  RH  034%=      5-min Rain = 0
KHO1 211345Z 18012KT 25/08 A3002 RMK A01 T02470076  RH  034%=      5-min Rain = 0
KHO1 211346Z 18011KT 25/08 A3002 RMK A01 T02470076  RH  034%=      5-min Rain = 0
KHO1 211347Z 18012KT 25/08 A3002 RMK A01 T02480076  RH  033%=      5-min Rain = 0
KHO1 211348Z 18013KT 25/08 A3002 RMK A01 T02490076  RH  033%=      5-min Rain = 0
KHO1 211349Z 18011KT 25/08 A3002 RMK A01 T02500077  RH  033%=      5-min Rain = 0
KHO1 211350Z 18011KT 25/08 A3002 RMK A01 T02520078  RH  033%=      5-min Rain = 0
KHO1 211351Z 18012KT 25/08 A3002 RMK A01 T02530078  RH  033%=      5-min Rain = 0
KHO1 211352Z 17012KT 25/08 A3002 RMK A01 T02530078  RH  033%=      5-min Rain = 0
KHO1 211353Z 18013KT 25/08 A3002 RMK A01 T02530077  RH  033%=      5-min Rain = 0
KHO1 211354Z 18014KT 25/08 A3002 RMK A01 T02540078  RH  032%=      5-min Rain = 0
KHO1 211355Z 18013KT 26/08 A3002 RMK A01 T02550078  RH  033%=      5-min Rain = 0
KHO1 211356Z 18014KT 26/08 A3002 RMK A01 T02550078  RH  032%=      5-min Rain = 0
KHO1 211357Z 17013KT 26/08 A3002 RMK A01 T02550079  RH  033%=      5-min Rain = 0
KHO1 211358Z 18015KT 26/08 A3002 RMK A01 T02550078  RH  032%=      5-min Rain = 0
KHO1 211359Z 18013KT 26/08 A3002 RMK A01 T02550078  RH  032%=      5-min Rain = 0
KHO1 211400Z 18012KT 26/08 A3002 RMK A01 T02550079  RH  032%=      5-min Rain = 0
KHO1 211401Z 19010KT 26/08 A3002 RMK A01 T02560079  RH  032%=      5-min Rain = 0
KHO1 211402Z 18013KT 26/08 A3002 RMK A01 T02570079  RH  032%=      5-min Rain = 0
KHO1 211403Z 18012KT 26/08 A3002 RMK A01 T02560079  RH  032%=      5-min Rain = 0
KHO1 211404Z 18010KT 26/08 A3003 RMK A01 T02570079  RH  032%=      5-min Rain = 0
KHO1 211405Z 18007KT 26/08 A3003 RMK A01 T02580080  RH  032%=      5-min Rain = 0
KHO1 211406Z 20007KT 26/08 A3004 RMK A01 T02580080  RH  032%=      5-min Rain = 0
KHO1 211407Z 20008KT 26/08 A3004 RMK A01 T02580080  RH  032%=      5-min Rain = 0
KHO1 211408Z 19007KT 26/08 A3004 RMK A01 T02590080  RH  032%=      5-min Rain = 0
KHO1 211409Z 18008KT 26/08 A3003 RMK A01 T02590080  RH  032%=      5-min Rain = 0
KHO1 211410Z 17009KT 26/08 A3003 RMK A01 T02600082  RH  032%=      5-min Rain = 0
KHO1 211411Z 18009KT 26/08 A3003 RMK A01 T02610081  RH  032%=      5-min Rain = 0
KHO1 211412Z 17010KT 26/08 A3003 RMK A01 T02620081  RH  032%=      5-min Rain = 0
KHO1 211413Z 18009KT 26/08 A3003 RMK A01 T02640083  RH  032%=      5-min Rain = 0
KHO1 211414Z 18012KT 26/08 A3003 RMK A01 T02640081  RH  031%=      5-min Rain = 0
KHO1 211415Z 18012KT 26/08 A3002 RMK A01 T02640082  RH  032%=      5-min Rain = 0
KHO1 211416Z 18010KT 27/08 A3002 RMK A01 T02660083  RH  031%=      5-min Rain = 0
KHO1 211417Z 18012KT 27/08 A3002 RMK A01 T02650080  RH  031%=      5-min Rain = 0
KHO1 211418Z 17013KT 27/08 A3002 RMK A01 T02650082  RH  031%=      5-min Rain = 0
KHO1 211419Z 17011KT 26/08 A3002 RMK A01 T02640081  RH  031%=      5-min Rain = 0
KHO1 211420Z 17013KT 26/08 A3002 RMK A01 T02640082  RH  031%=      5-min Rain = 0
KHO1 211421Z 17011KT 26/08 A3002 RMK A01 T02640082  RH  031%=      5-min Rain = 0
KHO1 211422Z 17011KT 27/08 A3002 RMK A01 T02660083  RH  031%=      5-min Rain = 0
KHO1 211423Z 18012KT 27/08 A3002 RMK A01 T02670083  RH  031%=      5-min Rain = 0
KHO1 211424Z 18014KT 27/08 A3002 RMK A01 T02670083  RH  031%=      5-min Rain = 0
KHO1 211425Z 17012KT 27/08 A3002 RMK A01 T02660082  RH  031%=      5-min Rain = 0
KHO1 211426Z 17013KT 27/08 A3002 RMK A01 T02660082  RH  031%=      5-min Rain = 0
KHO1 211427Z 18011KT 27/08 A3002 RMK A01 T02660082  RH  031%=      5-min Rain = 0
KHO1 211428Z 17014KT 27/08 A3002 RMK A01 T02670082  RH  031%=      5-min Rain = 0
KHO1 211429Z 17013KT 27/08 A3002 RMK A01 T02650081  RH  031%=      5-min Rain = 0
KHO1 211430Z 17011KT 27/08 A3003 RMK A01 T02660083  RH  031%=      5-min Rain = 0
KHO1 211431Z 17012KT 27/08 A3003 RMK A01 T02670083  RH  031%=      5-min Rain = 0
KHO1 211432Z 17012KT 27/08 A3002 RMK A01 T02670083  RH  031%=      5-min Rain = 0
KHO1 211433Z 17012KT 27/08 A3002 RMK A01 T02680083  RH  031%=      5-min Rain = 0
KHO1 211434Z 17012KT 27/08 A3002 RMK A01 T02680083  RH  031%=      5-min Rain = 0
KHO1 211435Z 18012KT 27/08 A3002 RMK A01 T02670082  RH  031%=      5-min Rain = 0
KHO1 211436Z 17010KT 27/08 A3002 RMK A01 T02670084  RH  031%=      5-min Rain = 0
KHO1 211437Z 16012KT 27/09 A3002 RMK A01 T02700085  RH  031%=      5-min Rain = 0
KHO1 211438Z 17012KT 27/08 A3002 RMK A01 T02680083  RH  031%=      5-min Rain = 0
KHO1 211439Z 17008KT 27/09 A3003 RMK A01 T02680085  RH  031%=      5-min Rain = 0
KHO1 211440Z 17012KT 27/08 A3003 RMK A01 T02700084  RH  031%=      5-min Rain = 0
KHO1 211441Z 17011KT 27/08 A3003 RMK A01 T02690084  RH  031%=      5-min Rain = 0
KHO1 211442Z 17009KT 27/09 A3003 RMK A01 T02710086  RH  031%=      5-min Rain = 0
KHO1 211443Z 16011KT 27/09 A3003 RMK A01 T02720086  RH  031%=      5-min Rain = 0
KHO1 211444Z 17009KT 27/09 A3003 RMK A01 T02710085  RH  031%=      5-min Rain = 0
KHO1 211445Z 17011KT 27/08 A3003 RMK A01 T02710084  RH  031%=      5-min Rain = 0
KHO1 211446Z 17010KT 27/08 A3003 RMK A01 T02690083  RH  031%=      5-min Rain = 0
KHO1 211447Z 16010KT 27/09 A3003 RMK A01 T02680085  RH  031%=      5-min Rain = 0
KHO1 211448Z 17008KT 27/09 A3003 RMK A01 T02700086  RH  031%=      5-min Rain = 0
KHO1 211449Z 16009KT 27/09 A3003 RMK A01 T02710085  RH  031%=      5-min Rain = 0
KHO1 211450Z 15009KT 27/09 A3003 RMK A01 T02700086  RH  031%=      5-min Rain = 0
KHO1 211451Z 15010KT 27/09 A3003 RMK A01 T02730089  RH  031%=      5-min Rain = 0
KHO1 211452Z 16009KT 27/09 A3003 RMK A01 T02740087  RH  031%=      5-min Rain = 0
KHO1 211453Z 18009KT 27/09 A3003 RMK A01 T02740085  RH  030%=      5-min Rain = 0
KHO1 211454Z 17009KT 27/09 A3003 RMK A01 T02740086  RH  031%=      5-min Rain = 0
KHO1 211455Z 18008KT 27/09 A3003 RMK A01 T02730085  RH  031%=      5-min Rain = 0
KHO1 211456Z 17010KT 27/09 A3003 RMK A01 T02740087  RH  031%=      5-min Rain = 0
KHO1 211457Z 18010KT 27/09 A3003 RMK A01 T02730085  RH  030%=      5-min Rain = 0
KHO1 211458Z 18009KT 27/09 A3003 RMK A01 T02730086  RH  031%=      5-min Rain = 0
KHO1 211459Z 18010KT 27/09 A3003 RMK A01 T02740086  RH  031%=      5-min Rain = 0
KHO1 211500Z 17010KT 27/09 A3003 RMK A01 T02740087  RH  031%=      5-min Rain = 0
KHO1 211501Z 17010KT 27/09 A3003 RMK A01 T02740086  RH  031%=      5-min Rain = 0
KHO1 211502Z 16010KT 27/09 A3003 RMK A01 T02740087  RH  031%=      5-min Rain = 0
KHO1 211503Z 18008KT 28/09 A3003 RMK A01 T02750088  RH  031%=      5-min Rain = 0
KHO1 211504Z 18010KT 28/09 A3003 RMK A01 T02770087  RH  030%=      5-min Rain = 0
KHO1 211505Z 19008KT 28/09 A3004 RMK A01 T02770088  RH  030%=      5-min Rain = 0
KHO1 211506Z 20008KT 28/09 A3004 RMK A01 T02770087  RH  030%=      5-min Rain = 0
KHO1 211507Z 20006KT 28/09 A3004 RMK A01 T02780088  RH  030%=      5-min Rain = 0
KHO1 211508Z 19008KT 28/09 A3004 RMK A01 T02790089  RH  030%=      5-min Rain = 0
KHO1 211509Z 18009KT 28/09 A3004 RMK A01 T02790087  RH  030%=      5-min Rain = 0
KHO1 211510Z 18009KT 28/09 A3004 RMK A01 T02790088  RH  030%=      5-min Rain = 0
KHO1 211511Z 17007KT 28/09 A3004 RMK A01 T02770087  RH  030%=      5-min Rain = 0
KHO1 211512Z 17007KT 28/09 A3004 RMK A01 T02780088  RH  030%=      5-min Rain = 0
KHO1 211513Z 18006KT 28/09 A3004 RMK A01 T02780088  RH  030%=      5-min Rain = 0
KHO1 211514Z 16007KT 28/09 A3004 RMK A01 T02790089  RH  030%=      5-min Rain = 0
KHO1 211515Z 15007KT 28/09 A3004 RMK A01 T02800088  RH  030%=      5-min Rain = 0
KHO1 211516Z 15006KT 28/09 A3004 RMK A01 T02770087  RH  030%=      5-min Rain = 0
KHO1 211517Z 16008KT 28/09 A3004 RMK A01 T02800091  RH  031%=      5-min Rain = 0
KHO1 211518Z 17008KT 28/09 A3004 RMK A01 T02800087  RH  030%=      5-min Rain = 0
KHO1 211519Z 16008KT 28/09 A3004 RMK A01 T02790088  RH  030%=      5-min Rain = 0
KHO1 211520Z 16009KT 28/09 A3004 RMK A01 T02800091  RH  031%=      5-min Rain = 0
KHO1 211521Z 17007KT 28/09 A3003 RMK A01 T02830091  RH  030%=      5-min Rain = 0
KHO1 211522Z 16009KT 29/09 A3003 RMK A01 T02850092  RH  030%=      5-min Rain = 0
KHO1 211523Z 15011KT 29/09 A3003 RMK A01 T02850090  RH  030%=      5-min Rain = 0
KHO1 211524Z 16010KT 28/09 A3003 RMK A01 T02840090  RH  030%=      5-min Rain = 0
KHO1 211525Z 16007KT 28/09 A3004 RMK A01 T02830090  RH  030%=      5-min Rain = 0
KHO1 211526Z 16010KT 28/09 A3004 RMK A01 T02830089  RH  030%=      5-min Rain = 0
KHO1 211527Z 16009KT 28/09 A3004 RMK A01 T02810090  RH  030%=      5-min Rain = 0
KHO1 211528Z 16007KT 28/09 A3004 RMK A01 T02820090  RH  030%=      5-min Rain = 0
KHO1 211529Z 15007KT 28/09 A3004 RMK A01 T02830093  RH  030%=      5-min Rain = 0
KHO1 211530Z 14007KT 29/09 A3004 RMK A01 T02850091  RH  030%=      5-min Rain = 0
KHO1 211531Z 14010KT 28/09 A3004 RMK A01 T02840091  RH  030%=      5-min Rain = 0
KHO1 211532Z 14009KT 29/09 A3004 RMK A01 T02860094  RH  030%=      5-min Rain = 0
KHO1 211533Z 14008KT 29/09 A3004 RMK A01 T02870093  RH  030%=      5-min Rain = 0
KHO1 211534Z 15008KT 29/09 A3005 RMK A01 T02890093  RH  029%=      5-min Rain = 0
KHO1 211535Z 17007KT 29/09 A3005 RMK A01 T02900094  RH  030%=      5-min Rain = 0
KHO1 211536Z 17005KT 29/09 A3005 RMK A01 T02900091  RH  029%=      5-min Rain = 0
KHO1 211537Z 15008KT 29/09 A3005 RMK A01 T02870091  RH  029%=      5-min Rain = 0
KHO1 211538Z 14006KT 29/09 A3005 RMK A01 T02870092  RH  030%=      5-min Rain = 0
KHO1 211539Z 16006KT 29/09 A3005 RMK A01 T02880094  RH  030%=      5-min Rain = 0
KHO1 211540Z 17007KT 29/09 A3005 RMK A01 T02900094  RH  029%=      5-min Rain = 0
KHO1 211541Z 17005KT 29/09 A3005 RMK A01 T02890092  RH  029%=      5-min Rain = 0
KHO1 211542Z 16006KT 29/09 A3005 RMK A01 T02890094  RH  030%=      5-min Rain = 0
KHO1 211543Z 17009KT 29/10 A3005 RMK A01 T02920095  RH  029%=      5-min Rain = 0
KHO1 211544Z 17009KT 29/09 A3005 RMK A01 T02920093  RH  029%=      5-min Rain = 0
KHO1 211545Z 17006KT 29/09 A3005 RMK A01 T02920094  RH  029%=      5-min Rain = 0
KHO1 211546Z 19006KT 29/10 A3005 RMK A01 T02930095  RH  029%=      5-min Rain = 0
KHO1 211547Z 18009KT 29/09 A3005 RMK A01 T02940093  RH  029%=      5-min Rain = 0
KHO1 211548Z 16007KT 29/09 A3005 RMK A01 T02930094  RH  029%=      5-min Rain = 0
KHO1 211549Z 17006KT 29/09 A3005 RMK A01 T02920093  RH  029%=      5-min Rain = 0
KHO1 211550Z 16005KT 29/09 A3005 RMK A01 T02910093  RH  029%=      5-min Rain = 0
KHO1 211551Z 15005KT 29/09 A3005 RMK A01 T02930094  RH  029%=      5-min Rain = 0
KHO1 211552Z 14004KT 29/09 A3005 RMK A01 T02940094  RH  029%=      5-min Rain = 0
KHO1 211553Z 13004KT 30/10 A3005 RMK A01 T02950095  RH  029%=      5-min Rain = 0
KHO1 211554Z 14006KT 30/10 A3005 RMK A01 T02970096  RH  029%=      5-min Rain = 0
KHO1 211555Z 18006KT 30/10 A3005 RMK A01 T03010099  RH  029%=      5-min Rain = 0
KHO1 211556Z 16008KT 30/10 A3005 RMK A01 T03020096  RH  028%=      5-min Rain = 0
KHO1 211557Z 18005KT 30/10 A3005 RMK A01 T03020096  RH  028%=      5-min Rain = 0
KHO1 211558Z 17006KT 30/10 A3005 RMK A01 T03030097  RH  028%=      5-min Rain = 0
KHO1 211559Z 17007KT 30/09 A3005 RMK A01 T03020093  RH  027%=      5-min Rain = 0
KHO1 211600Z 19005KT 30/09 A3005 RMK A01 T02970091  RH  028%=      5-min Rain = 0
KHO1 211601Z 18005KT 30/09 A3005 RMK A01 T02950093  RH  028%=      5-min Rain = 0
KHO1 211602Z 12004KT 30/10 A3005 RMK A01 T02960095  RH  029%=      5-min Rain = 0
KHO1 211603Z 14003KT 30/10 A3005 RMK A01 T02960095  RH  029%=      5-min Rain = 0
KHO1 211604Z 18005KT 30/10 A3005 RMK A01 T02990097  RH  028%=      5-min Rain = 0
KHO1 211605Z 17004KT 30/09 A3005 RMK A01 T03000094  RH  028%=      5-min Rain = 0
KHO1 211606Z 16004KT 30/10 A3005 RMK A01 T02990095  RH  028%=      5-min Rain = 0
KHO1 211607Z 16008KT 30/10 A3005 RMK A01 T03010097  RH  028%=      5-min Rain = 0
KHO1 211608Z 16007KT 30/10 A3005 RMK A01 T03000095  RH  028%=      5-min Rain = 0
KHO1 211609Z 17009KT 30/10 A3005 RMK A01 T03010095  RH  028%=      5-min Rain = 0
KHO1 211610Z 17005KT 30/10 A3005 RMK A01 T02990095  RH  028%=      5-min Rain = 0
KHO1 211611Z 18005KT 30/10 A3005 RMK A01 T03010096  RH  028%=      5-min Rain = 0
KHO1 211612Z 18004KT 30/10 A3005 RMK A01 T03010096  RH  028%=      5-min Rain = 0
KHO1 211613Z 16003KT 30/10 A3005 RMK A01 T03020097  RH  028%=      5-min Rain = 0
KHO1 211614Z 14003KT 30/10 A3005 RMK A01 T03030097  RH  028%=      5-min Rain = 0
KHO1 211615Z 15009G14KT 31/10 A3005 RMK A01 T03050097  RH  028%=      5-min Rain = 0
KHO1 211616Z 17006KT 31/10 A3005 RMK A01 T03050096  RH  027%=      5-min Rain = 0
KHO1 211617Z 17004KT 31/10 A3005 RMK A01 T03060098  RH  028%=      5-min Rain = 0
KHO1 211618Z 15004KT 31/10 A3006 RMK A01 T03080099  RH  027%=      5-min Rain = 0
KHO1 211619Z 16004KT 31/10 A3006 RMK A01 T03090096  RH  027%=      5-min Rain = 0
KHO1 211620Z 17004KT 31/10 A3006 RMK A01 T03080096  RH  027%=      5-min Rain = 0
KHO1 211621Z 17005KT 31/10 A3006 RMK A01 T03050095  RH  027%=      5-min Rain = 0
KHO1 211622Z 19005KT 31/10 A3006 RMK A01 T03060098  RH  028%=      5-min Rain = 0
KHO1 211623Z 19007KT 31/10 A3006 RMK A01 T03070096  RH  027%=      5-min Rain = 0
KHO1 211624Z 19006KT 30/10 A3006 RMK A01 T03040096  RH  027%=      5-min Rain = 0
KHO1 211625Z 19005KT 31/10 A3006 RMK A01 T03050096  RH  027%=      5-min Rain = 0
KHO1 211626Z 20006KT 31/10 A3006 RMK A01 T03050097  RH  028%=      5-min Rain = 0
KHO1 211627Z 20004KT 31/10 A3005 RMK A01 T03080097  RH  027%=      5-min Rain = 0
KHO1 211628Z 18004KT 31/10 A3005 RMK A01 T03080098  RH  027%=      5-min Rain = 0
KHO1 211629Z 18006KT 31/10 A3005 RMK A01 T03090096  RH  027%=      5-min Rain = 0
KHO1 211630Z 19005KT 31/10 A3005 RMK A01 T03090096  RH  027%=      5-min Rain = 0
KHO1 211631Z 18005KT 31/10 A3005 RMK A01 T03100096  RH  027%=      5-min Rain = 0
KHO1 211632Z 20006KT 31/10 A3005 RMK A01 T03090096  RH  027%=      5-min Rain = 0
KHO1 211633Z 18007KT 31/10 A3005 RMK A01 T03070096  RH  027%=      5-min Rain = 0
KHO1 211634Z 18007KT 31/10 A3005 RMK A01 T03080098  RH  027%=      5-min Rain = 0
KHO1 211635Z 18006KT 31/10 A3005 RMK A01 T03080096  RH  027%=      5-min Rain = 0
KHO1 211636Z 17007KT 31/10 A3005 RMK A01 T03090097  RH  027%=      5-min Rain = 0
KHO1 211637Z 16006KT 31/10 A3005 RMK A01 T03070095  RH  027%=      5-min Rain = 0
KHO1 211638Z 16006KT 31/10 A3005 RMK A01 T03070097  RH  027%=      5-min Rain = 0
KHO1 211639Z 15004KT 31/10 A3005 RMK A01 T03090098  RH  027%=      5-min Rain = 0
KHO1 211640Z 19005KT 31/10 A3005 RMK A01 T03110100  RH  027%=      5-min Rain = 0
KHO1 211641Z 18002KT 31/10 A3005 RMK A01 T03110097  RH  026%=      5-min Rain = 0
KHO1 211642Z 18003KT 31/10 A3005 RMK A01 T03120098  RH  027%=      5-min Rain = 0
KHO1 211643Z 18005KT 32/10 A3005 RMK A01 T03150102  RH  027%=      5-min Rain = 0
KHO1 211644Z 18009KT 32/10 A3005 RMK A01 T03190100  RH  026%=      5-min Rain = 0
KHO1 211645Z 19008KT 32/10 A3005 RMK A01 T03150096  RH  026%=      5-min Rain = 0
KHO1 211646Z 20008KT 31/10 A3005 RMK A01 T03140097  RH  026%=      5-min Rain = 0
KHO1 211647Z 21006KT 31/10 A3005 RMK A01 T03120097  RH  026%=      5-min Rain = 0
KHO1 211648Z 21003KT 31/10 A3005 RMK A01 T03130097  RH  026%=      5-min Rain = 0
KHO1 211649Z 20004KT 31/10 A3005 RMK A01 T03130097  RH  026%=      5-min Rain = 0
KHO1 211650Z 18005KT 32/10 A3005 RMK A01 T03180101  RH  026%=      5-min Rain = 0
KHO1 211651Z 20006KT 32/10 A3005 RMK A01 T03190097  RH  025%=      5-min Rain = 0
KHO1 211652Z 19004KT 32/10 A3005 RMK A01 T03170095  RH  025%=      5-min Rain = 0
KHO1 211653Z 15007KT 32/10 A3005 RMK A01 T03170097  RH  026%=      5-min Rain = 0
KHO1 211654Z 15008KT 32/10 A3005 RMK A01 T03180097  RH  026%=      5-min Rain = 0
KHO1 211655Z 16005KT 32/09 A3005 RMK A01 T03170094  RH  025%=      5-min Rain = 0
KHO1 211656Z 17003KT 32/10 A3005 RMK A01 T03160095  RH  025%=      5-min Rain = 0
KHO1 211657Z 17003KT 32/10 A3005 RMK A01 T03190098  RH  026%=      5-min Rain = 0
KHO1 211658Z 18006KT 32/10 A3005 RMK A01 T03220097  RH  025%=      5-min Rain = 0
KHO1 211659Z 21007KT 32/10 A3005 RMK A01 T03210095  RH  025%=      5-min Rain = 0
KHO1 211700Z 19008KT 32/09 A3005 RMK A01 T03200093  RH  024%=      5-min Rain = 0
KHO1 211701Z 19006KT 32/09 A3005 RMK A01 T03180092  RH  025%=      5-min Rain = 0
KHO1 211702Z 17004KT 32/09 A3005 RMK A01 T03180092  RH  025%=      5-min Rain = 0
KHO1 211703Z 20004KT 32/10 A3005 RMK A01 T03190095  RH  025%=      5-min Rain = 0
KHO1 211704Z 19005KT 32/10 A3005 RMK A01 T03220097  RH  025%=      5-min Rain = 0
KHO1 211705Z 17006KT 32/10 A3005 RMK A01 T03240099  RH  025%=      5-min Rain = 0
KHO1 211706Z 18006KT 33/10 A3005 RMK A01 T03270099  RH  025%=      5-min Rain = 0
KHO1 211707Z 20006KT 33/10 A3005 RMK A01 T03260097  RH  024%=      5-min Rain = 0
KHO1 211708Z 20008KT 33/10 A3005 RMK A01 T03260096  RH  024%=      5-min Rain = 0
KHO1 211709Z 19006KT 33/10 A3005 RMK A01 T03260096  RH  024%=      5-min Rain = 0
KHO1 211710Z 16007KT 33/10 A3005 RMK A01 T03260098  RH  025%=      5-min Rain = 0
KHO1 211711Z 17007KT 33/10 A3005 RMK A01 T03270098  RH  024%=      5-min Rain = 0
KHO1 211712Z 19006KT 33/10 A3005 RMK A01 T03260097  RH  025%=      5-min Rain = 0
KHO1 211713Z 18007KT 33/10 A3005 RMK A01 T03250099  RH  025%=      5-min Rain = 0
KHO1 211714Z 19007KT 33/10 A3005 RMK A01 T03250098  RH  025%=      5-min Rain = 0
KHO1 211715Z 20005KT 32/10 A3005 RMK A01 T03240098  RH  025%=      5-min Rain = 0
KHO1 211716Z 20007KT 33/10 A3005 RMK A01 T03260103  RH  025%=      5-min Rain = 0
KHO1 211717Z 21006KT 33/10 A3005 RMK A01 T03280101  RH  025%=      5-min Rain = 0
KHO1 211718Z 21005KT 33/10 A3005 RMK A01 T03280101  RH  025%=      5-min Rain = 0
KHO1 211719Z 19006KT 33/10 A3005 RMK A01 T03300101  RH  025%=      5-min Rain = 0
KHO1 211720Z 15006KT 33/10 A3005 RMK A01 T03310099  RH  024%=      5-min Rain = 0
KHO1 211721Z 14007KT 33/10 A3005 RMK A01 T03280098  RH  024%=      5-min Rain = 0
KHO1 211722Z 14006KT 33/10 A3005 RMK A01 T03270098  RH  025%=      5-min Rain = 0
KHO1 211723Z 12003KT 33/10 A3005 RMK A01 T03260100  RH  025%=      5-min Rain = 0
KHO1 211724Z 15002KT 33/10 A3005 RMK A01 T03280098  RH  024%=      5-min Rain = 0
KHO1 211725Z 17003KT 33/10 A3005 RMK A01 T03280099  RH  024%=      5-min Rain = 0
KHO1 211726Z 20006KT 33/10 A3005 RMK A01 T03290100  RH  024%=      5-min Rain = 0
KHO1 211727Z 18009KT 33/10 A3005 RMK A01 T03320099  RH  024%=      5-min Rain = 0
KHO1 211728Z 17006KT 33/10 A3005 RMK A01 T03320097  RH  024%=      5-min Rain = 0
KHO1 211729Z 15003KT 33/10 A3005 RMK A01 T03300097  RH  024%=      5-min Rain = 0
KHO1 211730Z 16008KT 33/10 A3005 RMK A01 T03310098  RH  024%=      5-min Rain = 0
KHO1 211731Z 14007KT 33/10 A3005 RMK A01 T03340100  RH  024%=      5-min Rain = 0
KHO1 211732Z 14006KT 34/10 A3005 RMK A01 T03350099  RH  024%=      5-min Rain = 0
KHO1 211733Z 13005KT 34/10 A3005 RMK A01 T03360098  RH  023%=      5-min Rain = 0
KHO1 211734Z 12007KT 34/10 A3005 RMK A01 T03360098  RH  023%=      5-min Rain = 0
KHO1 211735Z 13006KT 34/10 A3005 RMK A01 T03360098  RH  023%=      5-min Rain = 0
KHO1 211736Z 14004KT 34/10 A3005 RMK A01 T03370097  RH  023%=      5-min Rain = 0
KHO1 211737Z 13004KT 34/10 A3005 RMK A01 T03390098  RH  023%=      5-min Rain = 0
KHO1 211738Z 09005KT 34/10 A3005 RMK A01 T03420098  RH  022%=      5-min Rain = 0
KHO1 211739Z 08002KT 35/10 A3005 RMK A01 T03450096  RH  022%=      5-min Rain = 0
KHO1 211740Z 16004KT 35/10 A3005 RMK A01 T03460097  RH  022%=      5-min Rain = 0
KHO1 211741Z 17005KT 34/10 A3005 RMK A01 T03440095  RH  022%=      5-min Rain = 0
KHO1 211742Z 15004KT 34/10 A3005 RMK A01 T03400096  RH  022%=      5-min Rain = 0
KHO1 211743Z 15004KT 34/10 A3005 RMK A01 T03400095  RH  022%=      5-min Rain = 0
KHO1 211744Z 11004KT 34/10 A3005 RMK A01 T03420098  RH  023%=      5-min Rain = 0
KHO1 211745Z 14003KT 35/10 A3005 RMK A01 T03460096  RH  022%=      5-min Rain = 0
KHO1 211746Z 15008KT 34/10 A3005 RMK A01 T03440096  RH  022%=      5-min Rain = 0
KHO1 211747Z 15005KT 34/09 A3005 RMK A01 T03400093  RH  022%=      5-min Rain = 0
KHO1 211748Z 16005KT 34/10 A3005 RMK A01 T03390096  RH  023%=      5-min Rain = 0
KHO1 211749Z 13005KT 34/10 A3005 RMK A01 T03390097  RH  023%=      5-min Rain = 0
KHO1 211750Z 10003KT 34/10 A3005 RMK A01 T03410098  RH  023%=      5-min Rain = 0
KHO1 211751Z 11003KT 35/10 A3005 RMK A01 T03450099  RH  022%=      5-min Rain = 0
KHO1 211752Z 15004KT 35/10 A3005 RMK A01 T03450096  RH  022%=      5-min Rain = 0
KHO1 211753Z 18002KT 34/09 A3005 RMK A01 T03440094  RH  022%=      5-min Rain = 0
KHO1 211754Z 17004KT 34/09 A3005 RMK A01 T03440093  RH  022%=      5-min Rain = 0
KHO1 211755Z 17003KT 34/09 A3005 RMK A01 T03410092  RH  022%=      5-min Rain = 0
KHO1 211756Z 12007KT 34/09 A3005 RMK A01 T03430093  RH  022%=      5-min Rain = 0
KHO1 211757Z 11007KT 35/09 A3005 RMK A01 T03460089  RH  021%=      5-min Rain = 0
KHO1 211758Z 10008KT 35/09 A3005 RMK A01 T03470092  RH  021%=      5-min Rain = 0
KHO1 211759Z 13009KT 35/09 A3005 RMK A01 T03520091  RH  020%=      5-min Rain = 0
KHO1 211800Z 13008KT 35/09 A3005 RMK A01 T03520087  RH  020%=      5-min Rain = 0
KHO1 211801Z 12006KT 35/09 A3005 RMK A01 T03510087  RH  020%=      5-min Rain = 0
KHO1 211802Z 12005KT 35/09 A3005 RMK A01 T03500086  RH  020%=      5-min Rain = 0
KHO1 211803Z 13004KT 35/08 A3005 RMK A01 T03470084  RH  020%=      5-min Rain = 0
KHO1 211804Z 10003KT 35/09 A3005 RMK A01 T03460088  RH  021%=      5-min Rain = 0
KHO1 211805Z 13005KT 35/09 A3005 RMK A01 T03480091  RH  021%=      5-min Rain = 0
KHO1 211806Z 15005KT 35/09 A3005 RMK A01 T03480088  RH  020%=      5-min Rain = 0
KHO1 211807Z 16004KT 34/09 A3005 RMK A01 T03440091  RH  021%=      5-min Rain = 0
KHO1 211808Z 17006KT 35/09 A3005 RMK A01 T03450091  RH  021%=      5-min Rain = 0
KHO1 211809Z 16004KT 34/09 A3005 RMK A01 T03410089  RH  021%=      5-min Rain = 0
KHO1 211810Z 16002KT 34/09 A3005 RMK A01 T03400092  RH  022%=      5-min Rain = 0
KHO1 211811Z 12003KT 34/09 A3005 RMK A01 T03420092  RH  022%=      5-min Rain = 0
KHO1 211812Z 15003KT 34/09 A3004 RMK A01 T03430093  RH  022%=      5-min Rain = 0
KHO1 211813Z 15005KT 34/09 A3004 RMK A01 T03440092  RH  021%=      5-min Rain = 0
KHO1 211814Z 17007KT 35/09 A3004 RMK A01 T03470094  RH  021%=      5-min Rain = 0
KHO1 211815Z 15008KT 35/09 A3004 RMK A01 T03460092  RH  021%=      5-min Rain = 0
KHO1 211816Z 14010KT 35/09 A3004 RMK A01 T03490092  RH  021%=      5-min Rain = 0
KHO1 211817Z 15010KT 35/09 A3004 RMK A01 T03500089  RH  020%=      5-min Rain = 0
KHO1 211818Z 14010KT 35/09 A3004 RMK A01 T03490089  RH  020%=      5-min Rain = 0
KHO1 211819Z 12007KT 35/09 A3004 RMK A01 T03490090  RH  020%=      5-min Rain = 0
KHO1 211820Z 11007G12KT 35/09 A3004 RMK A01 T03520091  RH  020%=      5-min Rain = 0
KHO1 211821Z 12009KT 36/09 A3004 RMK A01 T03550091  RH  020%=      5-min Rain = 0
KHO1 211822Z 10005KT 35/09 A3004 RMK A01 T03540092  RH  020%=      5-min Rain = 0
KHO1 211823Z 11002KT 36/09 A3004 RMK A01 T03560090  RH  020%=      5-min Rain = 0
KHO1 211824Z 13004KT 36/09 A3004 RMK A01 T03550090  RH  020%=      5-min Rain = 0
KHO1 211825Z 13011KT 36/09 A3004 RMK A01 T03560092  RH  020%=      5-min Rain = 0
KHO1 211826Z 13009KT 36/09 A3004 RMK A01 T03580091  RH  020%=      5-min Rain = 0
KHO1 211827Z 12006KT 36/09 A3004 RMK A01 T03590092  RH  020%=      5-min Rain = 0
KHO1 211828Z 10006KT 36/09 A3004 RMK A01 T03620092  RH  019%=      5-min Rain = 0
KHO1 211829Z 14005KT 36/09 A3004 RMK A01 T03620087  RH  019%=      5-min Rain = 0
KHO1 211830Z 16002KT 35/08 A3004 RMK A01 T03540084  RH  019%=      5-min Rain = 0
KHO1 211831Z 11003KT 35/09 A3004 RMK A01 T03530089  RH  020%=      5-min Rain = 0
KHO1 211832Z 08004KT 36/09 A3004 RMK A01 T03560093  RH  020%=      5-min Rain = 0
KHO1 211833Z 10004KT 36/10 A3004 RMK A01 T03610095  RH  020%=      5-min Rain = 0
KHO1 211834Z 17006KT 36/09 A3004 RMK A01 T03630090  RH  019%=      5-min Rain = 0
KHO1 211835Z 19004KT 36/09 A3004 RMK A01 T03570088  RH  019%=      5-min Rain = 0
KHO1 211836Z 14008KT 36/09 A3004 RMK A01 T03560091  RH  020%=      5-min Rain = 0
KHO1 211837Z 10009KT 36/09 A3004 RMK A01 T03590094  RH  020%=      5-min Rain = 0
KHO1 211838Z 11009KT 36/09 A3004 RMK A01 T03610093  RH  020%=      5-min Rain = 0
KHO1 211839Z 12010KT 36/09 A3004 RMK A01 T03610092  RH  019%=      5-min Rain = 0
KHO1 211840Z 12008KT 36/09 A3004 RMK A01 T03640093  RH  019%=      5-min Rain = 0
KHO1 211841Z 12010KT 37/09 A3004 RMK A01 T03650090  RH  019%=      5-min Rain = 0
KHO1 211842Z 11006KT 37/09 A3004 RMK A01 T03650090  RH  019%=      5-min Rain = 0
KHO1 211843Z 14006KT 36/09 A3004 RMK A01 T03640088  RH  019%=      5-min Rain = 0
KHO1 211844Z 15006KT 36/09 A3004 RMK A01 T03600087  RH  019%=      5-min Rain = 0
KHO1 211845Z 14006KT 36/09 A3004 RMK A01 T03580087  RH  019%=      5-min Rain = 0
KHO1 211846Z 17008KT 36/09 A3003 RMK A01 T03580086  RH  019%=      5-min Rain = 0
KHO1 211847Z 15013KT 36/09 A3003 RMK A01 T03580085  RH  019%=      5-min Rain = 0
KHO1 211848Z 13006KT 36/08 A3003 RMK A01 T03570084  RH  019%=      5-min Rain = 0
KHO1 211849Z 15009KT 36/09 A3003 RMK A01 T03610088  RH  019%=      5-min Rain = 0
KHO1 211850Z 11013KT 37/09 A3003 RMK A01 T03680087  RH  018%=      5-min Rain = 0
KHO1 211851Z 11012KT 37/09 A3003 RMK A01 T03710085  RH  018%=      5-min Rain = 0
KHO1 211852Z 11008KT 37/08 A3003 RMK A01 T03720082  RH  017%=      5-min Rain = 0
KHO1 211853Z 08005KT 37/09 A3003 RMK A01 T03710085  RH  018%=      5-min Rain = 0
KHO1 211854Z 07002KT 37/08 A3003 RMK A01 T03740083  RH  017%=      5-min Rain = 0
KHO1 211855Z 08004KT 38/09 A3003 RMK A01 T03760086  RH  017%=      5-min Rain = 0
KHO1 211856Z 14009KT 38/09 A3003 RMK A01 T03750085  RH  017%=      5-min Rain = 0
KHO1 211857Z 15009KT 37/08 A3003 RMK A01 T03670083  RH  018%=      5-min Rain = 0
KHO1 211858Z 16009KT 37/08 A3003 RMK A01 T03660083  RH  018%=      5-min Rain = 0
KHO1 211859Z 17006KT 37/08 A3003 RMK A01 T03650083  RH  018%=      5-min Rain = 0
KHO1 211900Z 17007KT 36/08 A3003 RMK A01 T03620083  RH  018%=      5-min Rain = 0
KHO1 211901Z 14013KT 36/09 A3003 RMK A01 T03620086  RH  019%=      5-min Rain = 0
KHO1 211902Z 13008KT 37/09 A3003 RMK A01 T03660086  RH  018%=      5-min Rain = 0
KHO1 211903Z 15007KT 37/09 A3003 RMK A01 T03670086  RH  018%=      5-min Rain = 0
KHO1 211904Z 12010KT 37/08 A3003 RMK A01 T03670083  RH  018%=      5-min Rain = 0
KHO1 211905Z 12008KT 37/08 A3003 RMK A01 T03660082  RH  018%=      5-min Rain = 0
KHO1 211906Z 12012KT 37/08 A3003 RMK A01 T03670082  RH  018%=      5-min Rain = 0
KHO1 211907Z 12009KT 37/08 A3003 RMK A01 T03650084  RH  018%=      5-min Rain = 0
KHO1 211908Z 13009KT 37/09 A3003 RMK A01 T03670085  RH  018%=      5-min Rain = 0
KHO1 211909Z 15011KT 37/08 A3003 RMK A01 T03650083  RH  018%=      5-min Rain = 0
KHO1 211910Z 15010KT 36/08 A3003 RMK A01 T03630084  RH  018%=      5-min Rain = 0
KHO1 211911Z 15009KT 36/09 A3003 RMK A01 T03620085  RH  018%=      5-min Rain = 0
KHO1 211912Z 16008KT 36/08 A3003 RMK A01 T03620083  RH  018%=      5-min Rain = 0
KHO1 211913Z 16005KT 36/08 A3003 RMK A01 T03600080  RH  018%=      5-min Rain = 0
KHO1 211914Z 16001KT 36/08 A3002 RMK A01 T03580080  RH  018%=      5-min Rain = 0
KHO1 211915Z 14000KT 36/08 A3002 RMK A01 T03600084  RH  019%=      5-min Rain = 0
KHO1 211916Z 19005KT 36/09 A3002 RMK A01 T03630085  RH  018%=      5-min Rain = 0
KHO1 211917Z 20003KT 36/08 A3002 RMK A01 T03640084  RH  018%=      5-min Rain = 0
KHO1 211918Z 14004G9KT 37/09 A3002 RMK A01 T03680088  RH  018%=      5-min Rain = 0
KHO1 211919Z 12009KT 37/09 A3002 RMK A01 T03720085  RH  017%=      5-min Rain = 0
KHO1 211920Z 13008KT 37/08 A3002 RMK A01 T03700082  RH  017%=      5-min Rain = 0
KHO1 211921Z 12012KT 37/08 A3002 RMK A01 T03700082  RH  017%=      5-min Rain = 0
KHO1 211922Z 11013KT 37/08 A3002 RMK A01 T03730082  RH  017%=      5-min Rain = 0
KHO1 211923Z 11011KT 38/08 A3002 RMK A01 T03750079  RH  017%=      5-min Rain = 0
KHO1 211924Z 08007KT 38/08 A3002 RMK A01 T03770078  RH  016%=      5-min Rain = 0
KHO1 211925Z 10011KT 38/08 A3002 RMK A01 T03800081  RH  016%=      5-min Rain = 0
KHO1 211926Z 11015KT 38/08 A3002 RMK A01 T03820081  RH  016%=      5-min Rain = 0
KHO1 211927Z 11011KT 38/08 A3002 RMK A01 T03800080  RH  016%=      5-min Rain = 0
KHO1 211928Z 11013KT 38/08 A3002 RMK A01 T03790081  RH  016%=      5-min Rain = 0
KHO1 211929Z 12011KT 38/08 A3002 RMK A01 T03780081  RH  016%=      5-min Rain = 0
KHO1 211930Z 12008KT 38/08 A3002 RMK A01 T03770081  RH  017%=      5-min Rain = 0
KHO1 211931Z 11010KT 38/08 A3002 RMK A01 T03780084  RH  017%=      5-min Rain = 0
KHO1 211932Z 11009KT 38/08 A3002 RMK A01 T03790084  RH  017%=      5-min Rain = 0
KHO1 211933Z 11007KT 38/08 A3002 RMK A01 T03790084  RH  017%=      5-min Rain = 0
KHO1 211934Z 11008G13KT 38/09 A3002 RMK A01 T03800085  RH  017%=      5-min Rain = 0
KHO1 211935Z 10007KT 38/09 A3002 RMK A01 T03810087  RH  017%=      5-min Rain = 0
KHO1 211936Z 10012KT 38/09 A3002 RMK A01 T03840086  RH  016%=      5-min Rain = 0
KHO1 211937Z 11009KT 39/09 A3001 RMK A01 T03850087  RH  017%=      5-min Rain = 0
KHO1 211938Z 14009KT 38/09 A3001 RMK A01 T03790089  RH  017%=      5-min Rain = 0
KHO1 211939Z 12012G25KT 38/09 A30 RMK A01 T03780091  RH  018%=      5-min Rain = 0
KHO1 211940Z 17012G19KT 38/08 A3001 RMK A01 T03770079  RH  016%=      5-min Rain = 0
KHO1 211941Z 16008KT 37/08 A3001 RMK A01 T03700081  RH  017%=      5-min Rain = 0
KHO1 211942Z 16008KT 37/08 A3001 RMK A01 T03710081  RH  017%=      5-min Rain = 0
KHO1 211943Z 17006KT 37/08 A3001 RMK A01 T03670079  RH  017%=      5-min Rain = 0
KHO1 211944Z 18006KT 37/08 A3001 RMK A01 T03670079  RH  017%=      5-min Rain = 0
KHO1 211945Z 17004KT 37/08 A3001 RMK A01 T03660081  RH  018%=      5-min Rain = 0
KHO1 211946Z 14004KT 37/08 A3001 RMK A01 T03720084  RH  017%=      5-min Rain = 0
KHO1 211947Z 14012G17KT 38/09 A3001 RMK A01 T03750086  RH  017%=      5-min Rain = 0
KHO1 211948Z 13011KT 38/08 A3001 RMK A01 T03750082  RH  017%=      5-min Rain = 0
KHO1 211949Z 14008KT 37/09 A3001 RMK A01 T03740085  RH  017%=      5-min Rain = 0
KHO1 211950Z 12010KT 38/09 A3001 RMK A01 T03780089  RH  017%=      5-min Rain = 0
KHO1 211951Z 11010KT 38/09 A3001 RMK A01 T03810091  RH  017%=      5-min Rain = 0
KHO1 211952Z 12013KT 38/09 A3001 RMK A01 T03800088  RH  017%=      5-min Rain = 0
KHO1 211953Z 12014KT 38/08 A3001 RMK A01 T03750084  RH  017%=      5-min Rain = 0
KHO1 211954Z 15015KT 38/09 A3001 RMK A01 T03760086  RH  017%=      5-min Rain = 0
KHO1 211955Z 14011KT 37/09 A3001 RMK A01 T03740085  RH  017%=      5-min Rain = 0
KHO1 211956Z 15012KT 37/09 A3001 RMK A01 T03730085  RH  017%=      5-min Rain = 0
KHO1 211957Z 15009KT 37/09 A3001 RMK A01 T03720085  RH  018%=      5-min Rain = 0
KHO1 211958Z 16008KT 37/09 A3001 RMK A01 T03710088  RH  018%=      5-min Rain = 0
KHO1 211959Z 16013KT 37/09 A3001 RMK A01 T03730091  RH  018%=      5-min Rain = 0
KHO1 212000Z 13014KT 37/09 A3001 RMK A01 T03740092  RH  018%=      5-min Rain = 0
KHO1 212001Z 11013KT 38/09 A3001 RMK A01 T03770094  RH  018%=      5-min Rain = 0
KHO1 212002Z 11010G15KT 38/09 A3001 RMK A01 T03780092  RH  018%=      5-min Rain = 0
KHO1 212003Z 12015G20KT 38/09 A3001 RMK A01 T03800091  RH  017%=      5-min Rain = 0
KHO1 212004Z 12011KT 38/09 A3001 RMK A01 T03770089  RH  017%=      5-min Rain = 0
KHO1 212005Z 11013KT 38/09 A30 RMK A01 T03770090  RH  018%=      5-min Rain = 0
KHO1 212006Z 12011KT 38/09 A3001 RMK A01 T03770089  RH  018%=      5-min Rain = 0
KHO1 212007Z 12011KT 38/09 A3001 RMK A01 T03760089  RH  018%=      5-min Rain = 0
KHO1 212008Z 13013KT 38/09 A30 RMK A01 T03750090  RH  018%=      5-min Rain = 0
KHO1 212009Z 13014KT 38/09 A30 RMK A01 T03760090  RH  018%=      5-min Rain = 0
KHO1 212010Z 13012KT 37/09 A3001 RMK A01 T03720086  RH  018%=      5-min Rain = 0
KHO1 212011Z 11010KT 37/09 A30 RMK A01 T03690090  RH  018%=      5-min Rain = 0
KHO1 212012Z 12010KT 37/09 A30 RMK A01 T03740093  RH  018%=      5-min Rain = 0
KHO1 212013Z 12011KT 38/09 A30 RMK A01 T03790093  RH  018%=      5-min Rain = 0
KHO1 212014Z 16011KT 38/09 A30 RMK A01 T03800087  RH  017%=      5-min Rain = 0
KHO1 212015Z 15013KT 37/09 A30 RMK A01 T03740086  RH  017%=      5-min Rain = 0
KHO1 212016Z 16010KT 37/09 A30 RMK A01 T03730087  RH  018%=      5-min Rain = 0
KHO1 212017Z 16007KT 37/09 A30 RMK A01 T03680088  RH  018%=      5-min Rain = 0
KHO1 212018Z 14011G19KT 37/09 A30 RMK A01 T03720093  RH  018%=      5-min Rain = 0
KHO1 212019Z 13015KT 37/09 A30 RMK A01 T03730090  RH  018%=      5-min Rain = 0
KHO1 212020Z 11011KT 37/09 A30 RMK A01 T03740091  RH  018%=      5-min Rain = 0
KHO1 212021Z 10010KT 38/09 A30 RMK A01 T03780091  RH  018%=      5-min Rain = 0
KHO1 212022Z 12009KT 38/09 A30 RMK A01 T03800089  RH  017%=      5-min Rain = 0
KHO1 212023Z 10008KT 38/09 A30 RMK A01 T03780089  RH  017%=      5-min Rain = 0
KHO1 212024Z 10011KT 38/09 A30 RMK A01 T03800090  RH  017%=      5-min Rain = 0
KHO1 212025Z 11011KT 39/09 A30 RMK A01 T03850091  RH  017%=      5-min Rain = 0
KHO1 212026Z 13014G20KT 39/09 A30 RMK A01 T03850086  RH  016%=      5-min Rain = 0
KHO1 212027Z 12011KT 38/09 A30 RMK A01 T03800087  RH  017%=      5-min Rain = 0
KHO1 212028Z 12009KT 38/09 A30 RMK A01 T03830088  RH  017%=      5-min Rain = 0
KHO1 212029Z 11008KT 38/09 A30 RMK A01 T03830086  RH  017%=      5-min Rain = 0
KHO1 212030Z 13008KT 38/09 A30 RMK A01 T03790086  RH  017%=      5-min Rain = 0
KHO1 212031Z 13009KT 38/09 A30 RMK A01 T03780088  RH  017%=      5-min Rain = 0
KHO1 212032Z 13010KT 38/09 A30 RMK A01 T03810091  RH  017%=      5-min Rain = 0
KHO1 212033Z 13011G16KT 39/09 A30 RMK A01 T03860090  RH  017%=      5-min Rain = 0
KHO1 212034Z 15012KT 38/08 A30 RMK A01 T03820083  RH  016%=      5-min Rain = 0
KHO1 212035Z 14010KT 38/08 A30 RMK A01 T03750084  RH  017%=      5-min Rain = 0
KHO1 212036Z 13008KT 37/09 A30 RMK A01 T03740085  RH  017%=      5-min Rain = 0
KHO1 212037Z 12007KT 37/08 A30 RMK A01 T03720084  RH  017%=      5-min Rain = 0
KHO1 212038Z 15007G13KT 37/09 A30 RMK A01 T03720086  RH  018%=      5-min Rain = 0
KHO1 212039Z 15011KT 37/08 A30 RMK A01 T03720084  RH  017%=      5-min Rain = 0
KHO1 212040Z 14009KT 37/08 A30 RMK A01 T03720084  RH  017%=      5-min Rain = 0
KHO1 212041Z 13006KT 37/09 A30 RMK A01 T03710085  RH  018%=      5-min Rain = 0
KHO1 212042Z 11010G15KT 38/09 A30 RMK A01 T03750087  RH  018%=      5-min Rain = 0
KHO1 212043Z 11007KT 38/09 A30 RMK A01 T03780085  RH  017%=      5-min Rain = 0
KHO1 212044Z 13005KT 38/08 A30 RMK A01 T03790083  RH  017%=      5-min Rain = 0
KHO1 212045Z 12007KT 38/09 A30 RMK A01 T03780086  RH  017%=      5-min Rain = 0
KHO1 212046Z 13008KT 38/09 A30 RMK A01 T03800085  RH  017%=      5-min Rain = 0
KHO1 212047Z 13011KT 38/09 A30 RMK A01 T03790088  RH  017%=      5-min Rain = 0
KHO1 212048Z 11012KT 38/09 A30 RMK A01 T03810089  RH  017%=      5-min Rain = 0
KHO1 212049Z 12014G19KT 38/09 A30 RMK A01 T03820089  RH  017%=      5-min Rain = 0
KHO1 212050Z 14015KT 38/09 A30 RMK A01 T03800087  RH  017%=      5-min Rain = 0
KHO1 212051Z 13007KT 38/09 A30 RMK A01 T03760087  RH  017%=      5-min Rain = 0
KHO1 212052Z 12006KT 37/09 A30 RMK A01 T03740087  RH  018%=      5-min Rain = 0
KHO1 212053Z 16011G17KT 38/09 A2999 RMK A01 T03770088  RH  017%=      5-min Rain = 0
KHO1 212054Z 15010KT 38/09 A30 RMK A01 T03780087  RH  017%=      5-min Rain = 0
KHO1 212055Z 16011KT 38/09 A30 RMK A01 T03780087  RH  017%=      5-min Rain = 0
KHO1 212056Z 16009KT 38/09 A30 RMK A01 T03800088  RH  017%=      5-min Rain = 0
KHO1 212057Z 13013G18KT 38/09 A30 RMK A01 T03800087  RH  017%=      5-min Rain = 0
KHO1 212058Z 12012KT 38/09 A30 RMK A01 T03810087  RH  017%=      5-min Rain = 0
KHO1 212059Z 13011KT 38/09 A30 RMK A01 T03830088  RH  017%=      5-min Rain = 0
KHO1 212100Z 14011KT 38/08 A30 RMK A01 T03820084  RH  016%=      5-min Rain = 0
KHO1 212101Z 14010KT 38/09 A30 RMK A01 T03800085  RH  017%=      5-min Rain = 0
KHO1 212102Z 16013KT 38/08 A30 RMK A01 T03790083  RH  017%=      5-min Rain = 0
KHO1 212103Z 17012KT 38/08 A2999 RMK A01 T03760082  RH  017%=      5-min Rain = 0
KHO1 212104Z 13014G19KT 38/08 A2999 RMK A01 T03750084  RH  017%=      5-min Rain = 0
KHO1 212105Z 12009KT 38/08 A30 RMK A01 T03780084  RH  017%=      5-min Rain = 0
KHO1 212106Z 13007G13KT 38/09 A30 RMK A01 T03810085  RH  017%=      5-min Rain = 0
KHO1 212107Z 15011KT 38/08 A30 RMK A01 T03810082  RH  016%=      5-min Rain = 0
KHO1 212108Z 13009KT 38/08 A30 RMK A01 T03780082  RH  017%=      5-min Rain = 0
KHO1 212109Z 13006KT 38/08 A30 RMK A01 T03770084  RH  017%=      5-min Rain = 0
KHO1 212110Z 14007KT 38/08 A30 RMK A01 T03760082  RH  017%=      5-min Rain = 0
KHO1 212111Z 14011G17KT 38/09 A2999 RMK A01 T03790086  RH  017%=      5-min Rain = 0
KHO1 212112Z 14012KT 38/08 A2999 RMK A01 T03800084  RH  017%=      5-min Rain = 0
KHO1 212113Z 14011G17KT 38/09 A2999 RMK A01 T03800085  RH  017%=      5-min Rain = 0
KHO1 212114Z 14015G20KT 38/08 A2999 RMK A01 T03810083  RH  016%=      5-min Rain = 0
KHO1 212115Z 13017KT 38/08 A2999 RMK A01 T03770083  RH  017%=      5-min Rain = 0
KHO1 212116Z 13010KT 38/08 A2999 RMK A01 T03780084  RH  017%=      5-min Rain = 0
KHO1 212117Z 15015KT 38/08 A2999 RMK A01 T03770083  RH  017%=      5-min Rain = 0
KHO1 212118Z 16011KT 37/08 A2999 RMK A01 T03740084  RH  017%=      5-min Rain = 0
KHO1 212119Z 15012KT 37/08 A2999 RMK A01 T03730084  RH  017%=      5-min Rain = 0
KHO1 212120Z 15009KT 37/09 A2999 RMK A01 T03710085  RH  018%=      5-min Rain = 0
KHO1 212121Z 19007KT 37/09 A2999 RMK A01 T03740087  RH  017%=      5-min Rain = 0
KHO1 212122Z 20007KT 37/08 A2999 RMK A01 T03740084  RH  017%=      5-min Rain = 0
KHO1 212123Z 19008KT 37/09 A2999 RMK A01 T03730085  RH  017%=      5-min Rain = 0
KHO1 212124Z 16010KT 38/09 A2999 RMK A01 T03750085  RH  017%=      5-min Rain = 0
KHO1 212125Z 17013KT 38/09 A2999 RMK A01 T03760085  RH  017%=      5-min Rain = 0
KHO1 212126Z 17010KT 37/09 A2999 RMK A01 T03730086  RH  017%=      5-min Rain = 0
KHO1 212127Z 15013KT 38/09 A2999 RMK A01 T03760087  RH  017%=      5-min Rain = 0
KHO1 212128Z 15011KT 38/09 A2999 RMK A01 T03760086  RH  017%=      5-min Rain = 0
KHO1 212129Z 15010KT 38/08 A2999 RMK A01 T03750084  RH  017%=      5-min Rain = 0
KHO1 212130Z 14013G19KT 37/08 A2999 RMK A01 T03720084  RH  017%=      5-min Rain = 0
KHO1 212131Z 14014KT 37/08 A2999 RMK A01 T03740084  RH  017%=      5-min Rain = 0
KHO1 212132Z 13013KT 38/09 A2999 RMK A01 T03770085  RH  017%=      5-min Rain = 0
KHO1 212133Z 14013KT 38/08 A2999 RMK A01 T03770083  RH  017%=      5-min Rain = 0
KHO1 212134Z 12010KT 38/09 A2999 RMK A01 T03810086  RH  017%=      5-min Rain = 0
KHO1 212135Z 11008KT 38/08 A2999 RMK A01 T03810082  RH  016%=      5-min Rain = 0
KHO1 212136Z 09008G13KT 38/08 A2999 RMK A01 T03810083  RH  016%=      5-min Rain = 0
KHO1 212137Z 07007KT 38/08 A2999 RMK A01 T03840083  RH  016%=      5-min Rain = 0
KHO1 212138Z 10010KT 39/08 A2999 RMK A01 T03850084  RH  016%=      5-min Rain = 0
KHO1 212139Z 13007KT 39/08 A2999 RMK A01 T03850080  RH  016%=      5-min Rain = 0
KHO1 212140Z 11008KT 38/08 A2999 RMK A01 T03820082  RH  016%=      5-min Rain = 0
KHO1 212141Z 13009KT 38/08 A2999 RMK A01 T03830083  RH  016%=      5-min Rain = 0
KHO1 212142Z 13011G16KT 39/08 A2999 RMK A01 T03860082  RH  016%=      5-min Rain = 0
KHO1 212143Z 14016KT 38/08 A2999 RMK A01 T03840080  RH  016%=      5-min Rain = 0
KHO1 212144Z 14014KT 38/08 A2999 RMK A01 T03790079  RH  016%=      5-min Rain = 0
KHO1 212145Z 16011KT 38/08 A2999 RMK A01 T03750082  RH  017%=      5-min Rain = 0
KHO1 212146Z 14014KT 38/08 A2999 RMK A01 T03760081  RH  017%=      5-min Rain = 0
KHO1 212147Z 13012KT 38/08 A2999 RMK A01 T03780082  RH  017%=      5-min Rain = 0
KHO1 212148Z 11009KT 38/08 A2999 RMK A01 T03800081  RH  016%=      5-min Rain = 0
KHO1 212149Z 11010KT 38/08 A2999 RMK A01 T03800081  RH  016%=      5-min Rain = 0
KHO1 212150Z 12009KT 38/08 A2999 RMK A01 T03830082  RH  016%=      5-min Rain = 0
KHO1 212151Z 11012KT 38/08 A2999 RMK A01 T03840078  RH  016%=      5-min Rain = 0
KHO1 212152Z 12011KT 39/08 A2999 RMK A01 T03850077  RH  015%=      5-min Rain = 0
KHO1 212153Z 12010KT 38/08 A2999 RMK A01 T03820079  RH  016%=      5-min Rain = 0
KHO1 212154Z 12009KT 38/08 A2999 RMK A01 T03820079  RH  016%=      5-min Rain = 0
KHO1 212155Z 13012G17KT 38/08 A2999 RMK A01 T03800079  RH  016%=      5-min Rain = 0
KHO1 212156Z 13013KT 38/08 A2999 RMK A01 T03780078  RH  016%=      5-min Rain = 0
KHO1 212157Z 14009KT 38/08 A2999 RMK A01 T03750078  RH  016%=      5-min Rain = 0
KHO1 212158Z 15011G18KT 38/08 A2999 RMK A01 T03760081  RH  017%=      5-min Rain = 0
KHO1 212159Z 15012KT 38/08 A2999 RMK A01 T03770080  RH  016%=      5-min Rain = 0
KHO1 212200Z 15014KT 38/08 A2999 RMK A01 T03790083  RH  017%=      5-min Rain = 0
KHO1 212201Z 15015KT 38/08 A2999 RMK A01 T03790080  RH  016%=      5-min Rain = 0
KHO1 212202Z 15013KT 38/08 A2999 RMK A01 T03760079  RH  016%=      5-min Rain = 0
KHO1 212203Z 15011KT 38/08 A2999 RMK A01 T03750079  RH  017%=      5-min Rain = 0
KHO1 212204Z 16011KT 37/08 A2999 RMK A01 T03740078  RH  017%=      5-min Rain = 0
KHO1 212205Z 14016KT 37/08 A2999 RMK A01 T03730079  RH  017%=      5-min Rain = 0
KHO1 212206Z 14012KT 37/08 A2999 RMK A01 T03740079  RH  017%=      5-min Rain = 0
KHO1 212207Z 15009KT 37/08 A2999 RMK A01 T03740079  RH  017%=      5-min Rain = 0
KHO1 212208Z 16012KT 37/08 A2999 RMK A01 T03740079  RH  017%=      5-min Rain = 0
KHO1 212209Z 15013KT 37/08 A2999 RMK A01 T03730080  RH  017%=      5-min Rain = 0
KHO1 212210Z 18010KT 37/08 A2999 RMK A01 T03740078  RH  016%=      5-min Rain = 0
KHO1 212211Z 16007KT 37/08 A2999 RMK A01 T03720079  RH  017%=      5-min Rain = 0
KHO1 212212Z 16012G18KT 37/08 A2999 RMK A01 T03720078  RH  017%=      5-min Rain = 0
KHO1 212213Z 14014KT 38/08 A2999 RMK A01 T03760080  RH  017%=      5-min Rain = 0
KHO1 212214Z 15012KT 38/08 A2999 RMK A01 T03800080  RH  016%=      5-min Rain = 0
KHO1 212215Z 14012KT 38/07 A2999 RMK A01 T03800074  RH  016%=      5-min Rain = 0
KHO1 212216Z 14016KT 38/08 A2999 RMK A01 T03790075  RH  016%=      5-min Rain = 0
KHO1 212217Z 15012KT 38/08 A2999 RMK A01 T03750076  RH  016%=      5-min Rain = 0
KHO1 212218Z 15011KT 37/08 A2999 RMK A01 T03730075  RH  016%=      5-min Rain = 0
KHO1 212219Z 16011KT 37/08 A2999 RMK A01 T03730076  RH  016%=      5-min Rain = 0
KHO1 212220Z 15008KT 37/08 A2999 RMK A01 T03710076  RH  017%=      5-min Rain = 0
KHO1 212221Z 13012KT 37/08 A2999 RMK A01 T03730077  RH  016%=      5-min Rain = 0
KHO1 212222Z 14010KT 38/08 A2999 RMK A01 T03750077  RH  016%=      5-min Rain = 0
KHO1 212223Z 14012KT 38/08 A2999 RMK A01 T03760076  RH  016%=      5-min Rain = 0
KHO1 212224Z 14013KT 38/08 A2999 RMK A01 T03750076  RH  016%=      5-min Rain = 0
KHO1 212225Z 13014KT 38/08 A2999 RMK A01 T03760076  RH  016%=      5-min Rain = 0
KHO1 212226Z 13014KT 38/07 A2999 RMK A01 T03780072  RH  015%=      5-min Rain = 0
KHO1 212227Z 13011G17KT 38/07 A2999 RMK A01 T03750074  RH  016%=      5-min Rain = 0
KHO1 212228Z 12013KT 38/07 A2999 RMK A01 T03780072  RH  016%=      5-min Rain = 0
KHO1 212229Z 12012KT 38/07 A2999 RMK A01 T03770072  RH  016%=      5-min Rain = 0
KHO1 212230Z 15012KT 38/07 A2999 RMK A01 T03780070  RH  015%=      5-min Rain = 0
KHO1 212231Z 14013KT 38/07 A2999 RMK A01 T03760068  RH  015%=      5-min Rain = 0
KHO1 212232Z 14012KT 38/07 A2999 RMK A01 T03750072  RH  016%=      5-min Rain = 0
KHO1 212233Z 13009KT 37/07 A2999 RMK A01 T03740069  RH  015%=      5-min Rain = 0
KHO1 212234Z 12009KT 37/07 A2999 RMK A01 T03740073  RH  016%=      5-min Rain = 0
KHO1 212235Z 13014KT 38/07 A2999 RMK A01 T03770073  RH  016%=      5-min Rain = 0
KHO1 212236Z 15013G19KT 38/07 A2999 RMK A01 T03770069  RH  015%=      5-min Rain = 0
KHO1 212237Z 14013G18KT 38/07 A2999 RMK A01 T03750072  RH  016%=      5-min Rain = 0
KHO1 212238Z 14011KT 38/07 A2999 RMK A01 T03750068  RH  015%=      5-min Rain = 0
KHO1 212239Z 14009KT 37/07 A2999 RMK A01 T03740069  RH  016%=      5-min Rain = 0
KHO1 212240Z 13010KT 37/07 A2999 RMK A01 T03720069  RH  016%=      5-min Rain = 0
KHO1 212241Z 12006KT 37/07 A2999 RMK A01 T03700071  RH  016%=      5-min Rain = 0
KHO1 212242Z 11007KT 37/07 A2999 RMK A01 T03720073  RH  016%=      5-min Rain = 0
KHO1 212243Z 12004KT 38/07 A2999 RMK A01 T03750070  RH  016%=      5-min Rain = 0
KHO1 212244Z 13007KT 37/07 A2999 RMK A01 T03740071  RH  016%=      5-min Rain = 0
KHO1 212245Z 13011KT 38/07 A2999 RMK A01 T03750068  RH  015%=      5-min Rain = 0
KHO1 212246Z 12010KT 38/07 A2999 RMK A01 T03750068  RH  015%=      5-min Rain = 0
KHO1 212247Z 12011KT 38/07 A2999 RMK A01 T03760068  RH  015%=      5-min Rain = 0
KHO1 212248Z 11007KT 38/07 A2999 RMK A01 T03770069  RH  015%=      5-min Rain = 0
KHO1 212249Z 10009G15KT 38/07 A2999 RMK A01 T03790070  RH  015%=      5-min Rain = 0
KHO1 212250Z 12012KT 38/07 A2999 RMK A01 T03810068  RH  015%=      5-min Rain = 0
KHO1 212251Z 10008KT 38/07 A2999 RMK A01 T03810068  RH  015%=      5-min Rain = 0
KHO1 212252Z 11011KT 38/07 A2999 RMK A01 T03830069  RH  015%=      5-min Rain = 0
KHO1 212253Z 10011KT 38/07 A2999 RMK A01 T03840068  RH  015%=      5-min Rain = 0
KHO1 212254Z 11011KT 39/07 A2999 RMK A01 T03850068  RH  015%=      5-min Rain = 0
KHO1 212255Z 10010KT 38/07 A2999 RMK A01 T03840067  RH  015%=      5-min Rain = 0
KHO1 212256Z 10011KT 38/07 A2998 RMK A01 T03830068  RH  015%=      5-min Rain = 0
KHO1 212257Z 09008KT 39/07 A2998 RMK A01 T03850067  RH  014%=      5-min Rain = 0
KHO1 212258Z 11011KT 39/07 A2998 RMK A01 T03860068  RH  014%=      5-min Rain = 0
KHO1 212259Z 12009KT 38/07 A2999 RMK A01 T03840066  RH  014%=      5-min Rain = 0
KHO1 212300Z 14008KT 38/06 A2998 RMK A01 T03790064  RH  015%=      5-min Rain = 0
KHO1 212301Z 12007KT 37/06 A2999 RMK A01 T03740064  RH  015%=      5-min Rain = 0
KHO1 212302Z 12010KT 38/07 A2999 RMK A01 T03750065  RH  015%=      5-min Rain = 0
KHO1 212303Z 12011KT 38/07 A2999 RMK A01 T03750065  RH  015%=      5-min Rain = 0
KHO1 212304Z 12010KT 38/07 A2999 RMK A01 T03770065  RH  015%=      5-min Rain = 0
KHO1 212305Z 11009KT 38/06 A2999 RMK A01 T03760064  RH  015%=      5-min Rain = 0
KHO1 212306Z 10008KT 38/07 A2999 RMK A01 T03780065  RH  015%=      5-min Rain = 0
KHO1 212307Z 10009KT 38/07 A2998 RMK A01 T03800065  RH  015%=      5-min Rain = 0
KHO1 212308Z 13011KT 38/07 A2999 RMK A01 T03820066  RH  015%=      5-min Rain = 0
KHO1 212309Z 13014KT 38/06 A2998 RMK A01 T03810064  RH  014%=      5-min Rain = 0
KHO1 212310Z 13012KT 38/06 A2999 RMK A01 T03790062  RH  014%=      5-min Rain = 0
KHO1 212311Z 15010KT 38/06 A2999 RMK A01 T03760062  RH  015%=      5-min Rain = 0
KHO1 212312Z 14010KT 38/06 A2999 RMK A01 T03760063  RH  015%=      5-min Rain = 0
KHO1 212313Z 11012KT 38/06 A2999 RMK A01 T03780064  RH  015%=      5-min Rain = 0
KHO1 212314Z 11010KT 38/06 A2999 RMK A01 T03780063  RH  015%=      5-min Rain = 0
KHO1 212315Z 10010KT 38/07 A2999 RMK A01 T03790065  RH  015%=      5-min Rain = 0
KHO1 212316Z 12009KT 38/06 A2998 RMK A01 T03800063  RH  014%=      5-min Rain = 0
KHO1 212317Z 12010KT 38/06 A2998 RMK A01 T03800064  RH  015%=      5-min Rain = 0
KHO1 212318Z 13010KT 38/06 A2998 RMK A01 T03790063  RH  014%=      5-min Rain = 0
KHO1 212319Z 11013KT 38/06 A2999 RMK A01 T03800064  RH  015%=      5-min Rain = 0
KHO1 212320Z 11012KT 38/06 A2999 RMK A01 T03800062  RH  014%=      5-min Rain = 0
KHO1 212321Z 09006KT 38/06 A2999 RMK A01 T03790062  RH  014%=      5-min Rain = 0
KHO1 212322Z 10006KT 38/06 A2999 RMK A01 T03810063  RH  014%=      5-min Rain = 0
KHO1 212323Z 11009KT 38/06 A2999 RMK A01 T03820063  RH  014%=      5-min Rain = 0
KHO1 212324Z 10010KT 38/06 A2998 RMK A01 T03810062  RH  014%=      5-min Rain = 0
KHO1 212325Z 11012KT 38/06 A2998 RMK A01 T03810062  RH  014%=      5-min Rain = 0
KHO1 212326Z 10012KT 38/06 A2998 RMK A01 T03810062  RH  014%=      5-min Rain = 0
KHO1 212327Z 12012KT 38/06 A2999 RMK A01 T03820063  RH  014%=      5-min Rain = 0
KHO1 212328Z 13012KT 38/06 A2998 RMK A01 T03810063  RH  014%=      5-min Rain = 0
KHO1 212329Z 12012KT 38/06 A2998 RMK A01 T03790062  RH  014%=      5-min Rain = 0
KHO1 212330Z 13009KT 38/06 A2999 RMK A01 T03780061  RH  014%=      5-min Rain = 0
KHO1 212331Z 14010KT 38/06 A2998 RMK A01 T03750060  RH  015%=      5-min Rain = 0
KHO1 212332Z 10009KT 38/06 A2998 RMK A01 T03770063  RH  015%=      5-min Rain = 0
KHO1 212333Z 11015KT 38/06 A2998 RMK A01 T03790061  RH  014%=      5-min Rain = 0
KHO1 212334Z 11014KT 38/06 A2998 RMK A01 T03790060  RH  014%=      5-min Rain = 0
KHO1 212335Z 11013KT 38/06 A2998 RMK A01 T03780060  RH  014%=      5-min Rain = 0
KHO1 212336Z 10011KT 38/06 A2998 RMK A01 T03780060  RH  014%=      5-min Rain = 0
KHO1 212337Z 12012KT 38/06 A2998 RMK A01 T03770059  RH  014%=      5-min Rain = 0
KHO1 212338Z 12013KT 38/06 A2999 RMK A01 T03750059  RH  014%=      5-min Rain = 0
KHO1 212339Z 11011KT 37/06 A2999 RMK A01 T03740059  RH  014%=      5-min Rain = 0
KHO1 212340Z 10008KT 38/06 A2999 RMK A01 T03750060  RH  014%=      5-min Rain = 0
KHO1 212341Z 10008KT 38/06 A2999 RMK A01 T03770061  RH  014%=      5-min Rain = 0
KHO1 212342Z 13010KT 38/06 A2998 RMK A01 T03770061  RH  014%=      5-min Rain = 0
KHO1 212343Z 13010KT 38/06 A2998 RMK A01 T03760062  RH  015%=      5-min Rain = 0
KHO1 212344Z 12014KT 38/06 A2998 RMK A01 T03770063  RH  015%=      5-min Rain = 0
KHO1 212345Z 11016KT 38/06 A2998 RMK A01 T03750062  RH  015%=      5-min Rain = 0
KHO1 212346Z 12012G17KT 37/06 A2998 RMK A01 T03730062  RH  015%=      5-min Rain = 0
KHO1 212347Z 11010KT 37/06 A2999 RMK A01 T03740063  RH  015%=      5-min Rain = 0
KHO1 212348Z 13008KT 38/06 A2999 RMK A01 T03750063  RH  015%=      5-min Rain = 0
KHO1 212349Z 11008KT 38/06 A2999 RMK A01 T03750064  RH  015%=      5-min Rain = 0
KHO1 212350Z 11012G17KT 38/06 A2998 RMK A01 T03760063  RH  015%=      5-min Rain = 0
KHO1 212351Z 12013KT 38/06 A2998 RMK A01 T03750062  RH  015%=      5-min Rain = 0
KHO1 212352Z 13010KT 37/06 A2998 RMK A01 T03740062  RH  015%=      5-min Rain = 0
KHO1 212353Z 12012KT 37/06 A2998 RMK A01 T03740062  RH  015%=      5-min Rain = 0
KHO1 212354Z 13011KT 37/06 A2998 RMK A01 T03740063  RH  015%=      5-min Rain = 0
KHO1 212355Z 14012KT 37/06 A2998 RMK A01 T03740062  RH  015%=      5-min Rain = 0
KHO1 212356Z 15012KT 37/06 A2998 RMK A01 T03720060  RH  015%=      5-min Rain = 0
KHO1 212357Z 15011KT 37/06 A2998 RMK A01 T03700061  RH  015%=      5-min Rain = 0
KHO1 212358Z 15009KT 37/06 A2998 RMK A01 T03700060  RH  015%=      5-min Rain = 0
KHO1 212359Z 14011KT 37/06 A2998 RMK A01 T03700061  RH  015%=      5-min Rain = 0
KHO1 220000Z 12011KT 37/06 A2998 RMK A01 T03700063  RH  015%=      5-min Rain = 0
KHO1 220001Z 12011KT 37/06 A2998 RMK A01 T03710063  RH  015%=      5-min Rain = 0
KHO1 220002Z 12008KT 37/06 A2998 RMK A01 T03720064  RH  015%=      5-min Rain = 0
KHO1 220003Z 12011G18KT 37/06 A2998 RMK A01 T03730064  RH  015%=      5-min Rain = 0
KHO1 220004Z 13015KT 37/06 A2998 RMK A01 T03720062  RH  015%=      5-min Rain = 0
KHO1 220005Z 13012KT 37/06 A2998 RMK A01 T03690062  RH  015%=      5-min Rain = 0
KHO1 220006Z 12010KT 37/06 A2998 RMK A01 T03690064  RH  015%=      5-min Rain = 0
KHO1 220007Z 13013G18KT 37/06 A2998 RMK A01 T03700064  RH  015%=      5-min Rain = 0
KHO1 220008Z 11010KT 37/07 A2998 RMK A01 T03700067  RH  016%=      5-min Rain = 0
KHO1 220009Z 11012KT 37/07 A2998 RMK A01 T03720065  RH  015%=      5-min Rain = 0
KHO1 220010Z 11010KT 37/07 A2998 RMK A01 T03720065  RH  015%=      5-min Rain = 0
KHO1 220011Z 13011KT 37/07 A2998 RMK A01 T03730065  RH  015%=      5-min Rain = 0
KHO1 220012Z 13013KT 37/06 A2998 RMK A01 T03720064  RH  015%=      5-min Rain = 0
KHO1 220013Z 12012KT 37/07 A2998 RMK A01 T03700066  RH  015%=      5-min Rain = 0
KHO1 220014Z 12011G18KT 37/07 A2998 RMK A01 T03700068  RH  016%=      5-min Rain = 0
KHO1 220015Z 12014KT 37/06 A2998 RMK A01 T03700064  RH  015%=      5-min Rain = 0
KHO1 220016Z 12013KT 37/06 A2998 RMK A01 T03690063  RH  015%=      5-min Rain = 0
KHO1 220017Z 12011KT 37/07 A2998 RMK A01 T03680067  RH  016%=      5-min Rain = 0
KHO1 220018Z 12010KT 37/07 A2998 RMK A01 T03680069  RH  016%=      5-min Rain = 0
KHO1 220019Z 11012KT 37/07 A2998 RMK A01 T03680067  RH  016%=      5-min Rain = 0
KHO1 220020Z 11010KT 37/07 A2998 RMK A01 T03670068  RH  016%=      5-min Rain = 0
KHO1 220021Z 12011KT 36/07 A2998 RMK A01 T03640068  RH  016%=      5-min Rain = 0
KHO1 220022Z 12013KT 36/07 A2998 RMK A01 T03620068  RH  016%=      5-min Rain = 0
KHO1 220023Z 14010KT 36/07 A2998 RMK A01 T03610069  RH  017%=      5-min Rain = 0
KHO1 220024Z 14013KT 36/07 A2998 RMK A01 T03600066  RH  016%=      5-min Rain = 0
KHO1 220025Z 14011KT 36/07 A2998 RMK A01 T03590066  RH  017%=      5-min Rain = 0
KHO1 220026Z 14013KT 36/07 A2998 RMK A01 T03580067  RH  017%=      5-min Rain = 0
KHO1 220027Z 14016KT 36/07 A2998 RMK A01 T03570066  RH  017%=      5-min Rain = 0
KHO1 220028Z 13013KT 36/07 A2998 RMK A01 T03560066  RH  017%=      5-min Rain = 0
KHO1 220029Z 12014KT 36/07 A2998 RMK A01 T03560066  RH  017%=      5-min Rain = 0
KHO1 220030Z 11015KT 36/07 A2998 RMK A01 T03560065  RH  017%=      5-min Rain = 0
KHO1 220031Z 12014KT 36/07 A2998 RMK A01 T03550065  RH  017%=      5-min Rain = 0
KHO1 220032Z 12014KT 36/07 A2998 RMK A01 T03550065  RH  017%=      5-min Rain = 0
KHO1 220033Z 12012KT 36/07 A2998 RMK A01 T03550066  RH  017%=      5-min Rain = 0
KHO1 220034Z 12013KT 36/07 A2998 RMK A01 T03550066  RH  017%=      5-min Rain = 0
KHO1 220035Z 12012KT 36/07 A2998 RMK A01 T03550066  RH  017%=      5-min Rain = 0
KHO1 220036Z 13013KT 35/07 A2998 RMK A01 T03540066  RH  017%=      5-min Rain = 0
KHO1 220037Z 13009KT 35/07 A2998 RMK A01 T03540066  RH  017%=      5-min Rain = 0
KHO1 220038Z 13009KT 35/07 A2998 RMK A01 T03540066  RH  017%=      5-min Rain = 0
KHO1 220039Z 12013KT 35/06 A2998 RMK A01 T03540064  RH  017%=      5-min Rain = 0
KHO1 220040Z 12013KT 35/06 A2998 RMK A01 T03540063  RH  017%=      5-min Rain = 0
KHO1 220041Z 13013KT 35/06 A2998 RMK A01 T03530063  RH  017%=      5-min Rain = 0
KHO1 220042Z 12012KT 35/06 A2998 RMK A01 T03530063  RH  017%=      5-min Rain = 0
KHO1 220043Z 12012KT 35/06 A2998 RMK A01 T03530063  RH  017%=      5-min Rain = 0
KHO1 220044Z 13013KT 35/06 A2998 RMK A01 T03530063  RH  017%=      5-min Rain = 0
KHO1 220045Z 13011KT 35/06 A2998 RMK A01 T03530063  RH  017%=      5-min Rain = 0
KHO1 220046Z 12012KT 35/06 A2998 RMK A01 T03530063  RH  017%=      5-min Rain = 0
KHO1 220047Z 12009KT 35/06 A2998 RMK A01 T03520062  RH  017%=      5-min Rain = 0
KHO1 220048Z 12008KT 35/06 A2998 RMK A01 T03520063  RH  017%=      5-min Rain = 0
KHO1 220049Z 11010KT 35/06 A2998 RMK A01 T03520062  RH  017%=      5-min Rain = 0
KHO1 220050Z 12010KT 35/06 A2999 RMK A01 T03510062  RH  017%=      5-min Rain = 0
KHO1 220051Z 11011KT 35/06 A2999 RMK A01 T03510062  RH  017%=      5-min Rain = 0
KHO1 220052Z 13012KT 35/06 A2999 RMK A01 T03510062  RH  017%=      5-min Rain = 0
KHO1 220053Z 12014G19KT 35/06 A2999 RMK A01 T03510062  RH  017%=      5-min Rain = 0
KHO1 220054Z 12015KT 35/06 A2999 RMK A01 T03500061  RH  017%=      5-min Rain = 0
KHO1 220055Z 12013KT 35/06 A2999 RMK A01 T03500061  RH  017%=      5-min Rain = 0
KHO1 220056Z 13012KT 35/06 A2999 RMK A01 T03500061  RH  017%=      5-min Rain = 0
KHO1 220057Z 13012G17KT 35/06 A2999 RMK A01 T03500061  RH  017%=      5-min Rain = 0
KHO1 220058Z 12012KT 35/06 A2999 RMK A01 T03500061  RH  017%=      5-min Rain = 0
KHO1 220059Z 12012KT 35/06 A2999 RMK A01 T03500061  RH  017%=      5-min Rain = 0
KHO1 220100Z 12013KT 35/06 A2999 RMK A01 T03490061  RH  017%=      5-min Rain = 0
KHO1 220101Z 12011KT 35/06 A2999 RMK A01 T03490060  RH  017%=      5-min Rain = 0
KHO1 220102Z 13012KT 35/06 A2999 RMK A01 T03490061  RH  017%=      5-min Rain = 0
KHO1 220103Z 12013KT 35/06 A2999 RMK A01 T03490060  RH  017%=      5-min Rain = 0
KHO1 220104Z 13011G16KT 35/06 A2999 RMK A01 T03490060  RH  017%=      5-min Rain = 0
KHO1 220105Z 12009KT 35/06 A2999 RMK A01 T03480061  RH  017%=      5-min Rain = 0
KHO1 220106Z 12008KT 35/06 A2999 RMK A01 T03480062  RH  017%=      5-min Rain = 0
KHO1 220107Z 12011KT 35/06 A2999 RMK A01 T03470062  RH  017%=      5-min Rain = 0
KHO1 220108Z 12012KT 35/06 A2999 RMK A01 T03470062  RH  017%=      5-min Rain = 0
KHO1 220109Z 12010KT 35/06 A2999 RMK A01 T03470062  RH  017%=      5-min Rain = 0
KHO1 220110Z 12012KT 35/06 A2999 RMK A01 T03470062  RH  017%=      5-min Rain = 0
KHO1 220111Z 12011KT 35/06 A2999 RMK A01 T03460062  RH  017%=      5-min Rain = 0
KHO1 220112Z 12012KT 35/06 A2999 RMK A01 T03460062  RH  017%=      5-min Rain = 0
KHO1 220113Z 12011KT 35/06 A2999 RMK A01 T03460061  RH  017%=      5-min Rain = 0
KHO1 220114Z 12012KT 35/06 A30 RMK A01 T03460062  RH  017%=      5-min Rain = 0
KHO1 220115Z 12011KT 35/06 A30 RMK A01 T03460062  RH  017%=      5-min Rain = 0
KHO1 220116Z 12013KT 35/06 A30 RMK A01 T03460062  RH  017%=      5-min Rain = 0
KHO1 220117Z 12013KT 35/06 A30 RMK A01 T03450061  RH  017%=      5-min Rain = 0
KHO1 220118Z 12012KT 35/06 A2999 RMK A01 T03450061  RH  017%=      5-min Rain = 0
KHO1 220119Z 12014KT 34/06 A30 RMK A01 T03440061  RH  017%=      5-min Rain = 0
KHO1 220120Z 12012KT 34/06 A2999 RMK A01 T03440061  RH  017%=      5-min Rain = 0
KHO1 220121Z 12015KT 34/06 A2999 RMK A01 T03440061  RH  017%=      5-min Rain = 0
KHO1 220122Z 12013KT 34/06 A30 RMK A01 T03440061  RH  017%=      5-min Rain = 0
KHO1 220123Z 12012KT 34/06 A30 RMK A01 T03430060  RH  017%=      5-min Rain = 0
KHO1 220124Z 12011KT 34/06 A30 RMK A01 T03430060  RH  017%=      5-min Rain = 0
KHO1 220125Z 12012KT 34/06 A30 RMK A01 T03430061  RH  017%=      5-min Rain = 0
KHO1 220126Z 13010KT 34/06 A30 RMK A01 T03420062  RH  018%=      5-min Rain = 0
KHO1 220127Z 12010KT 34/06 A30 RMK A01 T03410062  RH  018%=      5-min Rain = 0
KHO1 220128Z 12008KT 34/06 A30 RMK A01 T03410062  RH  018%=      5-min Rain = 0
KHO1 220129Z 13010KT 34/06 A30 RMK A01 T03400062  RH  018%=      5-min Rain = 0
KHO1 220130Z 12010KT 34/06 A30 RMK A01 T03400062  RH  018%=      5-min Rain = 0
KHO1 220131Z 13010KT 34/06 A30 RMK A01 T03400061  RH  018%=      5-min Rain = 0
KHO1 220132Z 13011KT 34/06 A30 RMK A01 T03400061  RH  018%=      5-min Rain = 0
KHO1 220133Z 13010KT 34/06 A30 RMK A01 T03400061  RH  018%=      5-min Rain = 0
KHO1 220134Z 13009KT 34/06 A30 RMK A01 T03390062  RH  018%=      5-min Rain = 0
KHO1 220135Z 13010KT 34/06 A30 RMK A01 T03390062  RH  018%=      5-min Rain = 0
KHO1 220136Z 12010KT 34/06 A30 RMK A01 T03390062  RH  018%=      5-min Rain = 0
KHO1 220137Z 12012KT 34/06 A30 RMK A01 T03390062  RH  018%=      5-min Rain = 0
KHO1 220138Z 12011KT 34/06 A30 RMK A01 T03390062  RH  018%=      5-min Rain = 0
KHO1 220139Z 12012KT 34/06 A30 RMK A01 T03390062  RH  018%=      5-min Rain = 0
KHO1 220140Z 13012KT 34/06 A30 RMK A01 T03390062  RH  018%=      5-min Rain = 0
KHO1 220141Z 12011KT 34/06 A30 RMK A01 T03390062  RH  018%=      5-min Rain = 0
KHO1 220142Z 13009KT 34/06 A30 RMK A01 T03380063  RH  018%=      5-min Rain = 0
KHO1 220143Z 12013KT 34/06 A30 RMK A01 T03380062  RH  018%=      5-min Rain = 0
KHO1 220144Z 12013KT 34/06 A30 RMK A01 T03390062  RH  018%=      5-min Rain = 0
KHO1 220145Z 12013KT 34/06 A30 RMK A01 T03390062  RH  018%=      5-min Rain = 0
KHO1 220146Z 13013KT 34/06 A30 RMK A01 T03380062  RH  018%=      5-min Rain = 0
KHO1 220147Z 12012KT 34/06 A3001 RMK A01 T03380063  RH  018%=      5-min Rain = 0
KHO1 220148Z 12012KT 34/06 A3001 RMK A01 T03380063  RH  018%=      5-min Rain = 0
KHO1 220149Z 12010KT 34/06 A3001 RMK A01 T03370064  RH  018%=      5-min Rain = 0
KHO1 220150Z 12013KT 34/06 A3001 RMK A01 T03370063  RH  018%=      5-min Rain = 0
KHO1 220151Z 12011KT 34/06 A3001 RMK A01 T03370064  RH  018%=      5-min Rain = 0
KHO1 220152Z 12011KT 34/06 A3001 RMK A01 T03370064  RH  018%=      5-min Rain = 0
KHO1 220153Z 13010KT 34/06 A3001 RMK A01 T03360064  RH  018%=      5-min Rain = 0
KHO1 220154Z 12011KT 34/06 A3001 RMK A01 T03350064  RH  019%=      5-min Rain = 0
KHO1 220155Z 13011KT 34/06 A3001 RMK A01 T03350064  RH  019%=      5-min Rain = 0
KHO1 220156Z 12013KT 34/06 A3001 RMK A01 T03350064  RH  019%=      5-min Rain = 0
KHO1 220157Z 12012KT 34/06 A3001 RMK A01 T03350064  RH  019%=      5-min Rain = 0
KHO1 220158Z 13013KT 34/06 A3001 RMK A01 T03350064  RH  019%=      5-min Rain = 0
KHO1 220159Z 12011KT 34/06 A3001 RMK A01 T03350064  RH  019%=      5-min Rain = 0
KHO1 220200Z 12010KT 34/07 A3001 RMK A01 T03350065  RH  019%=      5-min Rain = 0
KHO1 220201Z 13011KT 33/07 A3001 RMK A01 T03340065  RH  019%=      5-min Rain = 0
KHO1 220202Z 12010KT 33/07 A3001 RMK A01 T03330065  RH  019%=      5-min Rain = 0
KHO1 220203Z 13011KT 33/07 A3001 RMK A01 T03330065  RH  019%=      5-min Rain = 0
KHO1 220204Z 13010KT 33/07 A3001 RMK A01 T03330065  RH  019%=      5-min Rain = 0
KHO1 220205Z 13009KT 33/07 A3001 RMK A01 T03320065  RH  019%=      5-min Rain = 0
KHO1 220206Z 13010KT 33/07 A3001 RMK A01 T03320065  RH  019%=      5-min Rain = 0
KHO1 220207Z 13010KT 33/07 A3001 RMK A01 T03320065  RH  019%=      5-min Rain = 0
KHO1 220208Z 12011KT 33/07 A3001 RMK A01 T03320065  RH  019%=      5-min Rain = 0
KHO1 220209Z 13011KT 33/07 A3001 RMK A01 T03320065  RH  019%=      5-min Rain = 0
KHO1 220210Z 13011KT 33/07 A3001 RMK A01 T03310065  RH  019%=      5-min Rain = 0
KHO1 220211Z 13010KT 33/07 A3001 RMK A01 T03310065  RH  019%=      5-min Rain = 0
KHO1 220212Z 13011G16KT 33/07 A3001 RMK A01 T03300065  RH  019%=      5-min Rain = 0
KHO1 220213Z 13011KT 33/07 A3001 RMK A01 T03310065  RH  019%=      5-min Rain = 0
KHO1 220214Z 13010KT 33/07 A3002 RMK A01 T03300065  RH  019%=      5-min Rain = 0
KHO1 220215Z 13010KT 33/07 A3002 RMK A01 T03290065  RH  019%=      5-min Rain = 0
KHO1 220216Z 13011KT 33/07 A3002 RMK A01 T03290065  RH  019%=      5-min Rain = 0
KHO1 220217Z 13011KT 33/07 A3002 RMK A01 T03290065  RH  019%=      5-min Rain = 0
KHO1 220218Z 13012KT 33/07 A3002 RMK A01 T03290065  RH  019%=      5-min Rain = 0
KHO1 220219Z 13012KT 33/07 A3002 RMK A01 T03290065  RH  019%=      5-min Rain = 0
KHO1 220220Z 13011KT 33/07 A3002 RMK A01 T03290065  RH  019%=      5-min Rain = 0
KHO1 220221Z 12010KT 33/07 A3002 RMK A01 T03280066  RH  020%=      5-min Rain = 0
KHO1 220222Z 13010KT 33/07 A3002 RMK A01 T03280066  RH  020%=      5-min Rain = 0
KHO1 220223Z 13010KT 33/07 A3002 RMK A01 T03280065  RH  020%=      5-min Rain = 0
KHO1 220224Z 13009KT 33/07 A3002 RMK A01 T03280065  RH  020%=      5-min Rain = 0
KHO1 220225Z 13009KT 33/07 A3002 RMK A01 T03270066  RH  020%=      5-min Rain = 0
KHO1 220226Z 13010KT 33/07 A3002 RMK A01 T03260065  RH  020%=      5-min Rain = 0
KHO1 220227Z 13011KT 33/07 A3002 RMK A01 T03260065  RH  020%=      5-min Rain = 0
KHO1 220228Z 13008KT 33/07 A3002 RMK A01 T03260066  RH  020%=      5-min Rain = 0
KHO1 220229Z 13010KT 33/07 A3002 RMK A01 T03260065  RH  020%=      5-min Rain = 0
KHO1 220230Z 13011KT 33/07 A3002 RMK A01 T03260065  RH  020%=      5-min Rain = 0
KHO1 220231Z 13011KT 33/07 A3002 RMK A01 T03260065  RH  020%=      5-min Rain = 0
KHO1 220232Z 13010KT 33/07 A3002 RMK A01 T03260065  RH  020%=      5-min Rain = 0
KHO1 220233Z 13011KT 33/07 A3002 RMK A01 T03250065  RH  020%=      5-min Rain = 0
KHO1 220234Z 13010KT 33/06 A3002 RMK A01 T03250064  RH  020%=      5-min Rain = 0
KHO1 220235Z 13010KT 33/06 A3002 RMK A01 T03250064  RH  020%=      5-min Rain = 0
KHO1 220236Z 13010KT 33/06 A3002 RMK A01 T03250064  RH  020%=      5-min Rain = 0
KHO1 220237Z 13011KT 33/06 A3002 RMK A01 T03250064  RH  020%=      5-min Rain = 0
KHO1 220238Z 13011KT 33/06 A3002 RMK A01 T03250064  RH  020%=      5-min Rain = 0
KHO1 220239Z 13011KT 33/06 A3002 RMK A01 T03250064  RH  020%=      5-min Rain = 0
KHO1 220240Z 13010KT 32/06 A3003 RMK A01 T03240064  RH  020%=      5-min Rain = 0
KHO1 220241Z 13009KT 32/06 A3003 RMK A01 T03240064  RH  020%=      5-min Rain = 0
KHO1 220242Z 13010KT 32/06 A3003 RMK A01 T03230064  RH  020%=      5-min Rain = 0
KHO1 220243Z 13009KT 32/06 A3003 RMK A01 T03230064  RH  020%=      5-min Rain = 0
KHO1 220244Z 13011KT 32/06 A3003 RMK A01 T03220064  RH  020%=      5-min Rain = 0
KHO1 220245Z 13010KT 32/06 A3003 RMK A01 T03220064  RH  020%=      5-min Rain = 0
KHO1 220246Z 13009KT 32/06 A3003 RMK A01 T03220064  RH  020%=      5-min Rain = 0
KHO1 220247Z 13010KT 32/06 A3003 RMK A01 T03220064  RH  020%=      5-min Rain = 0
KHO1 220248Z 13010KT 32/06 A3003 RMK A01 T03220064  RH  020%=      5-min Rain = 0
KHO1 220249Z 13009KT 32/06 A3003 RMK A01 T03220064  RH  020%=      5-min Rain = 0
KHO1 220250Z 13009KT 32/06 A3003 RMK A01 T03210064  RH  020%=      5-min Rain = 0
KHO1 220251Z 13010KT 32/06 A3003 RMK A01 T03210064  RH  020%=      5-min Rain = 0
KHO1 220252Z 13011KT 32/06 A3003 RMK A01 T03210063  RH  020%=      5-min Rain = 0
KHO1 220253Z 13011KT 32/06 A3003 RMK A01 T03210063  RH  020%=      5-min Rain = 0
KHO1 220254Z 13008KT 32/06 A3003 RMK A01 T03200063  RH  020%=      5-min Rain = 0
KHO1 220255Z 13009KT 32/06 A3003 RMK A01 T03200063  RH  020%=      5-min Rain = 0
KHO1 220256Z 12008KT 32/06 A3004 RMK A01 T03200063  RH  020%=      5-min Rain = 0
KHO1 220257Z 13009KT 32/06 A3004 RMK A01 T03190063  RH  020%=      5-min Rain = 0
KHO1 220258Z 13009KT 32/06 A3004 RMK A01 T03190063  RH  020%=      5-min Rain = 0
KHO1 220259Z 13010KT 32/06 A3004 RMK A01 T03190063  RH  020%=      5-min Rain = 0
KHO1 220300Z 13008KT 32/06 A3004 RMK A01 T03190063  RH  020%=      5-min Rain = 0
KHO1 220301Z 13009KT 32/06 A3004 RMK A01 T03180063  RH  020%=      5-min Rain = 0
KHO1 220302Z 13007KT 32/06 A3004 RMK A01 T03190063  RH  020%=      5-min Rain = 0
KHO1 220303Z 12010KT 32/06 A3004 RMK A01 T03180063  RH  020%=      5-min Rain = 0
KHO1 220304Z 11008KT 32/06 A3004 RMK A01 T03190064  RH  020%=      5-min Rain = 0
KHO1 220305Z 11008KT 32/06 A3004 RMK A01 T03180064  RH  020%=      5-min Rain = 0
KHO1 220306Z 12009KT 32/06 A3004 RMK A01 T03170064  RH  020%=      5-min Rain = 0
KHO1 220307Z 12009KT 32/06 A3004 RMK A01 T03170064  RH  021%=      5-min Rain = 0
KHO1 220308Z 12009KT 32/06 A3004 RMK A01 T03170064  RH  021%=      5-min Rain = 0
KHO1 220309Z 12009KT 32/07 A3004 RMK A01 T03170065  RH  021%=      5-min Rain = 0
KHO1 220310Z 12009KT 32/07 A3004 RMK A01 T03170065  RH  021%=      5-min Rain = 0
KHO1 220311Z 12008KT 32/07 A3004 RMK A01 T03160065  RH  021%=      5-min Rain = 0
KHO1 220312Z 12011KT 32/07 A3004 RMK A01 T03160065  RH  021%=      5-min Rain = 0
KHO1 220313Z 12011KT 32/07 A3004 RMK A01 T03160065  RH  021%=      5-min Rain = 0
KHO1 220314Z 12011KT 32/07 A3004 RMK A01 T03160065  RH  021%=      5-min Rain = 0
KHO1 220315Z 12011KT 32/07 A3004 RMK A01 T03170065  RH  021%=      5-min Rain = 0
KHO1 220316Z 13010KT 32/07 A3004 RMK A01 T03160065  RH  021%=      5-min Rain = 0
KHO1 220317Z 12009KT 32/07 A3004 RMK A01 T03150065  RH  021%=      5-min Rain = 0
KHO1 220318Z 13010KT 32/07 A3004 RMK A01 T03150065  RH  021%=      5-min Rain = 0
KHO1 220319Z 12010KT 32/07 A3005 RMK A01 T03150066  RH  021%=      5-min Rain = 0
KHO1 220320Z 12009KT 32/07 A3005 RMK A01 T03150066  RH  021%=      5-min Rain = 0
KHO1 220321Z 13008KT 31/07 A3004 RMK A01 T03140066  RH  021%=      5-min Rain = 0
KHO1 220322Z 12010KT 31/07 A3004 RMK A01 T03130066  RH  021%=      5-min Rain = 0
KHO1 220323Z 13011KT 31/07 A3005 RMK A01 T03130066  RH  021%=      5-min Rain = 0
KHO1 220324Z 12011KT 31/07 A3005 RMK A01 T03130066  RH  021%=      5-min Rain = 0
KHO1 220325Z 13010KT 31/07 A3005 RMK A01 T03140066  RH  021%=      5-min Rain = 0
KHO1 220326Z 13008KT 31/07 A3005 RMK A01 T03130066  RH  021%=      5-min Rain = 0
KHO1 220327Z 12009KT 31/07 A3005 RMK A01 T03130066  RH  021%=      5-min Rain = 0
KHO1 220328Z 13009KT 31/07 A3005 RMK A01 T03130067  RH  021%=      5-min Rain = 0
KHO1 220329Z 12010KT 31/07 A3005 RMK A01 T03130067  RH  021%=      5-min Rain = 0
KHO1 220330Z 13010KT 31/07 A3005 RMK A01 T03130067  RH  021%=      5-min Rain = 0
KHO1 220331Z 12009KT 31/07 A3005 RMK A01 T03130067  RH  021%=      5-min Rain = 0
KHO1 220332Z 12009KT 31/07 A3005 RMK A01 T03130067  RH  022%=      5-min Rain = 0
KHO1 220333Z 12011KT 31/07 A3005 RMK A01 T03130067  RH  022%=      5-min Rain = 0
KHO1 220334Z 12009KT 31/07 A3005 RMK A01 T03130068  RH  022%=      5-min Rain = 0
KHO1 220335Z 12009KT 31/07 A3005 RMK A01 T03130068  RH  022%=      5-min Rain = 0
KHO1 220336Z 13012KT 31/07 A3005 RMK A01 T03130068  RH  022%=      5-min Rain = 0
KHO1 220337Z 12010KT 31/07 A3005 RMK A01 T03130068  RH  022%=      5-min Rain = 0
KHO1 220338Z 13011KT 31/07 A3005 RMK A01 T03120068  RH  022%=      5-min Rain = 0
KHO1 220339Z 12010KT 31/07 A3005 RMK A01 T03120068  RH  022%=      5-min Rain = 0
KHO1 220340Z 12009KT 31/07 A3005 RMK A01 T03120068  RH  022%=      5-min Rain = 0
KHO1 220341Z 12009KT 31/07 A3005 RMK A01 T03120069  RH  022%=      5-min Rain = 0
KHO1 220342Z 12010KT 31/07 A3005 RMK A01 T03110069  RH  022%=      5-min Rain = 0
KHO1 220343Z 12012KT 31/07 A3005 RMK A01 T03120068  RH  022%=      5-min Rain = 0
KHO1 220344Z 12012KT 31/07 A3006 RMK A01 T03120068  RH  022%=      5-min Rain = 0
KHO1 220345Z 12010KT 31/07 A3006 RMK A01 T03120068  RH  022%=      5-min Rain = 0
KHO1 220346Z 12010KT 31/07 A3006 RMK A01 T03120068  RH  022%=      5-min Rain = 0
KHO1 220347Z 11012KT 31/07 A3006 RMK A01 T03120068  RH  022%=      5-min Rain = 0
KHO1 220348Z 11008KT 31/07 A3006 RMK A01 T03120069  RH  022%=      5-min Rain = 0
KHO1 220349Z 11011KT 31/07 A3006 RMK A01 T03120069  RH  022%=      5-min Rain = 0
KHO1 220350Z 12009KT 31/07 A3006 RMK A01 T03120069  RH  022%=      5-min Rain = 0
KHO1 220351Z 10008KT 31/07 A3006 RMK A01 T03110069  RH  022%=      5-min Rain = 0
KHO1 220352Z 11007KT 31/07 A3006 RMK A01 T03110068  RH  022%=      5-min Rain = 0
KHO1 220353Z 10005KT 31/07 A3006 RMK A01 T03100068  RH  022%=      5-min Rain = 0
KHO1 220354Z 10006KT 31/07 A3006 RMK A01 T03090068  RH  022%=      5-min Rain = 0
KHO1 220355Z 10006KT 31/07 A3006 RMK A01 T03080068  RH  022%=      5-min Rain = 0
KHO1 220356Z 10008KT 31/07 A3006 RMK A01 T03070068  RH  022%=      5-min Rain = 0
KHO1 220357Z 10007KT 31/07 A3007 RMK A01 T03060069  RH  023%=      5-min Rain = 0
KHO1 220358Z 10007KT 31/07 A3006 RMK A01 T03060069  RH  023%=      5-min Rain = 0
KHO1 220359Z 11008KT 31/07 A3007 RMK A01 T03050069  RH  023%=      5-min Rain = 0
KHO1 220400Z 11008KT 30/07 A3007 RMK A01 T03040070  RH  023%=      5-min Rain = 0
KHO1 220401Z 11008KT 30/07 A3007 RMK A01 T03040070  RH  023%=      5-min Rain = 0
KHO1 220402Z 11008KT 30/07 A3007 RMK A01 T03040070  RH  023%=      5-min Rain = 0
KHO1 220403Z 10007KT 30/07 A3007 RMK A01 T03030070  RH  023%=      5-min Rain = 0
KHO1 220404Z 11007KT 30/07 A3007 RMK A01 T03030071  RH  023%=      5-min Rain = 0
KHO1 220405Z 11008KT 30/07 A3007 RMK A01 T03030071  RH  023%=      5-min Rain = 0
KHO1 220406Z 11007KT 30/07 A3007 RMK A01 T03030070  RH  023%=      5-min Rain = 0
KHO1 220407Z 11006KT 30/07 A3007 RMK A01 T03030070  RH  023%=      5-min Rain = 0
KHO1 220408Z 10006KT 30/07 A3008 RMK A01 T03020070  RH  023%=      5-min Rain = 0
KHO1 220409Z 10006KT 30/07 A3008 RMK A01 T03020070  RH  023%=      5-min Rain = 0
KHO1 220410Z 11006KT 30/07 A3008 RMK A01 T03020070  RH  023%=      5-min Rain = 0
KHO1 220411Z 10005KT 30/07 A3008 RMK A01 T03010070  RH  023%=      5-min Rain = 0
KHO1 220412Z 10004KT 30/07 A3008 RMK A01 T03010070  RH  023%=      5-min Rain = 0
KHO1 220413Z 10004KT 30/07 A3008 RMK A01 T03010070  RH  024%=      5-min Rain = 0
KHO1 220414Z 10004KT 30/07 A3008 RMK A01 T03000070  RH  024%=      5-min Rain = 0
KHO1 220415Z 10004KT 30/07 A3008 RMK A01 T03000070  RH  024%=      5-min Rain = 0
KHO1 220416Z 10005KT 30/07 A3008 RMK A01 T02990070  RH  024%=      5-min Rain = 0
KHO1 220417Z 11004KT 30/07 A3008 RMK A01 T02990071  RH  024%=      5-min Rain = 0
KHO1 220418Z 11003KT 30/07 A3008 RMK A01 T02990071  RH  024%=      5-min Rain = 0
KHO1 220419Z 11003KT 30/07 A3008 RMK A01 T02990071  RH  024%=      5-min Rain = 0
KHO1 220420Z 11003KT 30/07 A3008 RMK A01 T02990071  RH  024%=      5-min Rain = 0
KHO1 220421Z 12003KT 30/07 A3008 RMK A01 T02980071  RH  024%=      5-min Rain = 0
KHO1 220422Z 12003KT 30/07 A3008 RMK A01 T02980071  RH  024%=      5-min Rain = 0
KHO1 220423Z 12003KT 30/07 A3009 RMK A01 T02980071  RH  024%=      5-min Rain = 0
KHO1 220424Z 13003KT 30/07 A3009 RMK A01 T02980071  RH  024%=      5-min Rain = 0
KHO1 220425Z 13002KT 30/07 A3009 RMK A01 T02980071  RH  024%=      5-min Rain = 0
KHO1 220426Z 13001KT 30/07 A3009 RMK A01 T02980071  RH  024%=      5-min Rain = 0
KHO1 220427Z 13001KT 30/07 A3009 RMK A01 T02980071  RH  024%=      5-min Rain = 0
KHO1 220428Z 00000KT 30/07 A3009 RMK A01 T02970070  RH  024%=      5-min Rain = 0
KHO1 220429Z 13000KT 30/07 A3009 RMK A01 T02970071  RH  024%=      5-min Rain = 0
KHO1 220430Z 13002KT 30/07 A301 RMK A01 T02970071  RH  024%=      5-min Rain = 0
KHO1 220431Z 28003KT 30/07 A301 RMK A01 T02970072  RH  024%=      5-min Rain = 0
KHO1 220432Z 30005KT 30/07 A301 RMK A01 T02960073  RH  025%=      5-min Rain = 0
KHO1 220433Z 30007KT 30/08 A301 RMK A01 T02950080  RH  026%=      5-min Rain = 0
KHO1 220434Z 30008KT 29/09 A301 RMK A01 T02930086  RH  027%=      5-min Rain = 0
KHO1 220435Z 31008KT 29/09 A301 RMK A01 T02910085  RH  027%=      5-min Rain = 0
KHO1 220436Z 31009KT 29/08 A301 RMK A01 T02910084  RH  027%=      5-min Rain = 0
KHO1 220437Z 31008KT 29/10 A3011 RMK A01 T02910095  RH  029%=      5-min Rain = 0
KHO1 220438Z 30009KT 29/11 A3011 RMK A01 T02890108  RH  032%=      5-min Rain = 0
KHO1 220439Z 28010KT 28/11 A3011 RMK A01 T02840114  RH  035%=      5-min Rain = 0
KHO1 220440Z 29013KT 28/11 A3011 RMK A01 T02810111  RH  035%=      5-min Rain = 0
KHO1 220441Z 29012KT 28/11 A3011 RMK A01 T02800110  RH  035%=      5-min Rain = 0
KHO1 220442Z 30013KT 28/11 A3011 RMK A01 T02800113  RH  035%=      5-min Rain = 0
KHO1 220443Z 30015KT 28/12 A3011 RMK A01 T02780124  RH  038%=      5-min Rain = 0
KHO1 220444Z 31014KT 27/13 A3011 RMK A01 T02730130  RH  041%=      5-min Rain = 0
KHO1 220445Z 30015G22KT 27/13 A3012 RMK A01 T02680131  RH  043%=      5-min Rain = 0
KHO1 220446Z 30017G22KT 27/13 A3012 RMK A01 T02650128  RH  042%=      5-min Rain = 0
KHO1 220447Z 29019KT 26/13 A3012 RMK A01 T02640130  RH  043%=      5-min Rain = 0
KHO1 220448Z 30020KT 26/13 A3012 RMK A01 T02610128  RH  044%=      5-min Rain = 0
KHO1 220449Z 30016G21KT 26/13 A3012 RMK A01 T02590129  RH  044%=      5-min Rain = 0
KHO1 220450Z 29013KT 26/13 A3012 RMK A01 T02580127  RH  044%=      5-min Rain = 0
KHO1 220451Z 29015KT 26/13 A3012 RMK A01 T02580125  RH  043%=      5-min Rain = 0
KHO1 220452Z 29013KT 26/13 A3013 RMK A01 T02590126  RH  043%=      5-min Rain = 0
KHO1 220453Z 30018KT 26/13 A3013 RMK A01 T02600127  RH  044%=      5-min Rain = 0
KHO1 220454Z 30018KT 26/13 A3013 RMK A01 T02590129  RH  044%=      5-min Rain = 0
KHO1 220455Z 29019KT 26/13 A3014 RMK A01 T02580129  RH  045%=      5-min Rain = 0
KHO1 220456Z 29016KT 26/13 A3014 RMK A01 T02580131  RH  045%=      5-min Rain = 0
KHO1 220457Z 30014KT 26/13 A3014 RMK A01 T02570130  RH  045%=      5-min Rain = 0
KHO1 220458Z 30018KT 26/13 A3014 RMK A01 T02570130  RH  045%=      5-min Rain = 0
KHO1 220459Z 31015G20KT 26/13 A3014 RMK A01 T02580130  RH  045%=      5-min Rain = 0

Page generated in 0.1223 seconds.